<?xml version="1.0" encoding="UTF-8" standalone="no" ?>
<gpx xmlns="http://www.topografix.com/GPX/1/1" xmlns:xsi="http://www.w3.org/2001/XMLSchema-instance" xsi:schemaLocation="http://www.topografix.com/GPX/1/1 http://www.topografix.com/GPX/1/1/gpx.xsd" version="1.1" creator="VisuGPX - https://www.visugpx.com">
  <metadata>
    <name>Mercredi 11 mars 26 CALDO</name>
  </metadata>
  <trk>
    <name><![CDATA[Cado-Ibardin-18461223]]></name>
    <trkseg>
      <trkpt lat="43.38309" lon="-1.65903">
        <ele>5</ele>
        <time>2026-02-28T09:35:36Z</time>
      </trkpt>
      <trkpt lat="43.38298" lon="-1.65877">
        <ele>4</ele>
        <time>2026-02-28T09:35:40Z</time>
      </trkpt>
      <trkpt lat="43.38234" lon="-1.65703">
        <ele>4</ele>
        <time>2026-02-28T09:36:05Z</time>
      </trkpt>
      <trkpt lat="43.38233" lon="-1.65687">
        <ele>4</ele>
        <time>2026-02-28T09:36:07Z</time>
      </trkpt>
      <trkpt lat="43.38236" lon="-1.65679">
        <ele>4</ele>
        <time>2026-02-28T09:36:08Z</time>
      </trkpt>
      <trkpt lat="43.38252" lon="-1.65655">
        <ele>4</ele>
        <time>2026-02-28T09:36:13Z</time>
      </trkpt>
      <trkpt lat="43.38351" lon="-1.65522">
        <ele>4</ele>
        <time>2026-02-28T09:36:37Z</time>
      </trkpt>
      <trkpt lat="43.38357" lon="-1.65509">
        <ele>4</ele>
        <time>2026-02-28T09:36:39Z</time>
      </trkpt>
      <trkpt lat="43.38352" lon="-1.65508">
        <ele>4</ele>
        <time>2026-02-28T09:36:40Z</time>
      </trkpt>
      <trkpt lat="43.38328" lon="-1.65473">
        <ele>4</ele>
        <time>2026-02-28T09:36:46Z</time>
      </trkpt>
      <trkpt lat="43.38325" lon="-1.65465">
        <ele>4</ele>
        <time>2026-02-28T09:36:47Z</time>
      </trkpt>
      <trkpt lat="43.38326" lon="-1.65462">
        <ele>4</ele>
        <time>2026-02-28T09:36:48Z</time>
      </trkpt>
      <trkpt lat="43.38327" lon="-1.65457">
        <ele>4</ele>
        <time>2026-02-28T09:36:49Z</time>
      </trkpt>
      <trkpt lat="43.38331" lon="-1.65453">
        <ele>5</ele>
        <time>2026-02-28T09:36:49Z</time>
      </trkpt>
      <trkpt lat="43.3837" lon="-1.65376">
        <ele>5</ele>
        <time>2026-02-28T09:37:02Z</time>
      </trkpt>
      <trkpt lat="43.3839" lon="-1.65332">
        <ele>6</ele>
        <time>2026-02-28T09:37:08Z</time>
      </trkpt>
      <trkpt lat="43.38394" lon="-1.65317">
        <ele>8</ele>
        <time>2026-02-28T09:37:10Z</time>
      </trkpt>
      <trkpt lat="43.38392" lon="-1.65295">
        <ele>10</ele>
        <time>2026-02-28T09:37:13Z</time>
      </trkpt>
      <trkpt lat="43.38384" lon="-1.65266">
        <ele>13</ele>
        <time>2026-02-28T09:37:17Z</time>
      </trkpt>
      <trkpt lat="43.38365" lon="-1.65248">
        <ele>13</ele>
        <time>2026-02-28T09:37:21Z</time>
      </trkpt>
      <trkpt lat="43.38343" lon="-1.652">
        <ele>12</ele>
        <time>2026-02-28T09:37:29Z</time>
      </trkpt>
      <trkpt lat="43.38276" lon="-1.65016">
        <ele>9</ele>
        <time>2026-02-28T09:37:55Z</time>
      </trkpt>
      <trkpt lat="43.3826" lon="-1.64971">
        <ele>8</ele>
        <time>2026-02-28T09:38:02Z</time>
      </trkpt>
      <trkpt lat="43.38254" lon="-1.64945">
        <ele>8</ele>
        <time>2026-02-28T09:38:05Z</time>
      </trkpt>
      <trkpt lat="43.38252" lon="-1.64928">
        <ele>8</ele>
        <time>2026-02-28T09:38:08Z</time>
      </trkpt>
      <trkpt lat="43.38255" lon="-1.6488">
        <ele>9</ele>
        <time>2026-02-28T09:38:14Z</time>
      </trkpt>
      <trkpt lat="43.38279" lon="-1.64626">
        <ele>7</ele>
        <time>2026-02-28T09:38:47Z</time>
      </trkpt>
      <trkpt lat="43.3828" lon="-1.64566">
        <ele>9</ele>
        <time>2026-02-28T09:38:55Z</time>
      </trkpt>
      <trkpt lat="43.38277" lon="-1.64488">
        <ele>10</ele>
        <time>2026-02-28T09:39:05Z</time>
      </trkpt>
      <trkpt lat="43.38272" lon="-1.64424">
        <ele>8</ele>
        <time>2026-02-28T09:39:13Z</time>
      </trkpt>
      <trkpt lat="43.38264" lon="-1.64383">
        <ele>7</ele>
        <time>2026-02-28T09:39:19Z</time>
      </trkpt>
      <trkpt lat="43.38257" lon="-1.64359">
        <ele>6</ele>
        <time>2026-02-28T09:39:22Z</time>
      </trkpt>
      <trkpt lat="43.38244" lon="-1.64328">
        <ele>5</ele>
        <time>2026-02-28T09:39:27Z</time>
      </trkpt>
      <trkpt lat="43.38233" lon="-1.64308">
        <ele>5</ele>
        <time>2026-02-28T09:39:30Z</time>
      </trkpt>
      <trkpt lat="43.38212" lon="-1.64283">
        <ele>5</ele>
        <time>2026-02-28T09:39:35Z</time>
      </trkpt>
      <trkpt lat="43.38155" lon="-1.6423">
        <ele>6</ele>
        <time>2026-02-28T09:39:47Z</time>
      </trkpt>
      <trkpt lat="43.38124" lon="-1.64199">
        <ele>6</ele>
        <time>2026-02-28T09:39:54Z</time>
      </trkpt>
      <trkpt lat="43.38058" lon="-1.64061">
        <ele>9</ele>
        <time>2026-02-28T09:40:15Z</time>
      </trkpt>
      <trkpt lat="43.38049" lon="-1.64048">
        <ele>9</ele>
        <time>2026-02-28T09:40:17Z</time>
      </trkpt>
      <trkpt lat="43.37999" lon="-1.64003">
        <ele>8</ele>
        <time>2026-02-28T09:40:28Z</time>
      </trkpt>
      <trkpt lat="43.38027" lon="-1.63939">
        <ele>13</ele>
        <time>2026-02-28T09:40:38Z</time>
      </trkpt>
      <trkpt lat="43.38031" lon="-1.63905">
        <ele>15</ele>
        <time>2026-02-28T09:40:42Z</time>
      </trkpt>
      <trkpt lat="43.3803" lon="-1.63882">
        <ele>16</ele>
        <time>2026-02-28T09:40:45Z</time>
      </trkpt>
      <trkpt lat="43.38026" lon="-1.63857">
        <ele>17</ele>
        <time>2026-02-28T09:40:48Z</time>
      </trkpt>
      <trkpt lat="43.38007" lon="-1.6381">
        <ele>16</ele>
        <time>2026-02-28T09:40:55Z</time>
      </trkpt>
      <trkpt lat="43.37994" lon="-1.63769">
        <ele>16</ele>
        <time>2026-02-28T09:41:01Z</time>
      </trkpt>
      <trkpt lat="43.37981" lon="-1.63678">
        <ele>21</ele>
        <time>2026-02-28T09:41:13Z</time>
      </trkpt>
      <trkpt lat="43.37934" lon="-1.63567">
        <ele>25</ele>
        <time>2026-02-28T09:41:30Z</time>
      </trkpt>
      <trkpt lat="43.37911" lon="-1.63486">
        <ele>24</ele>
        <time>2026-02-28T09:41:41Z</time>
      </trkpt>
      <trkpt lat="43.37878" lon="-1.63422">
        <ele>22</ele>
        <time>2026-02-28T09:41:51Z</time>
      </trkpt>
      <trkpt lat="43.37874" lon="-1.63406">
        <ele>22</ele>
        <time>2026-02-28T09:41:53Z</time>
      </trkpt>
      <trkpt lat="43.37884" lon="-1.63387">
        <ele>23</ele>
        <time>2026-02-28T09:41:56Z</time>
      </trkpt>
      <trkpt lat="43.3791" lon="-1.63372">
        <ele>26</ele>
        <time>2026-02-28T09:42:01Z</time>
      </trkpt>
      <trkpt lat="43.3792" lon="-1.6337">
        <ele>27</ele>
        <time>2026-02-28T09:42:03Z</time>
      </trkpt>
      <trkpt lat="43.3793" lon="-1.63371">
        <ele>28</ele>
        <time>2026-02-28T09:42:05Z</time>
      </trkpt>
      <trkpt lat="43.37947" lon="-1.63394">
        <ele>30</ele>
        <time>2026-02-28T09:42:09Z</time>
      </trkpt>
      <trkpt lat="43.37965" lon="-1.63437">
        <ele>33</ele>
        <time>2026-02-28T09:42:16Z</time>
      </trkpt>
      <trkpt lat="43.37999" lon="-1.63513">
        <ele>37</ele>
        <time>2026-02-28T09:42:27Z</time>
      </trkpt>
      <trkpt lat="43.38029" lon="-1.63548">
        <ele>37</ele>
        <time>2026-02-28T09:42:34Z</time>
      </trkpt>
      <trkpt lat="43.38076" lon="-1.63597">
        <ele>39</ele>
        <time>2026-02-28T09:42:45Z</time>
      </trkpt>
      <trkpt lat="43.38109" lon="-1.63618">
        <ele>39</ele>
        <time>2026-02-28T09:42:51Z</time>
      </trkpt>
      <trkpt lat="43.38148" lon="-1.63628">
        <ele>42</ele>
        <time>2026-02-28T09:42:58Z</time>
      </trkpt>
      <trkpt lat="43.38157" lon="-1.63634">
        <ele>42</ele>
        <time>2026-02-28T09:43:00Z</time>
      </trkpt>
      <trkpt lat="43.38166" lon="-1.63643">
        <ele>42</ele>
        <time>2026-02-28T09:43:02Z</time>
      </trkpt>
      <trkpt lat="43.3818" lon="-1.63666">
        <ele>41</ele>
        <time>2026-02-28T09:43:06Z</time>
      </trkpt>
      <trkpt lat="43.38201" lon="-1.63597">
        <ele>43</ele>
        <time>2026-02-28T09:43:16Z</time>
      </trkpt>
      <trkpt lat="43.38215" lon="-1.63525">
        <ele>42</ele>
        <time>2026-02-28T09:43:25Z</time>
      </trkpt>
      <trkpt lat="43.38222" lon="-1.63476">
        <ele>42</ele>
        <time>2026-02-28T09:43:32Z</time>
      </trkpt>
      <trkpt lat="43.38242" lon="-1.6345">
        <ele>42</ele>
        <time>2026-02-28T09:43:37Z</time>
      </trkpt>
      <trkpt lat="43.38335" lon="-1.6339">
        <ele>45</ele>
        <time>2026-02-28T09:43:55Z</time>
      </trkpt>
      <trkpt lat="43.38348" lon="-1.63373">
        <ele>45</ele>
        <time>2026-02-28T09:43:58Z</time>
      </trkpt>
      <trkpt lat="43.38363" lon="-1.63343">
        <ele>45</ele>
        <time>2026-02-28T09:44:03Z</time>
      </trkpt>
      <trkpt lat="43.38414" lon="-1.63199">
        <ele>49</ele>
        <time>2026-02-28T09:44:23Z</time>
      </trkpt>
      <trkpt lat="43.3843" lon="-1.63168">
        <ele>50</ele>
        <time>2026-02-28T09:44:28Z</time>
      </trkpt>
      <trkpt lat="43.3847" lon="-1.63118">
        <ele>49</ele>
        <time>2026-02-28T09:44:38Z</time>
      </trkpt>
      <trkpt lat="43.38543" lon="-1.62989">
        <ele>47</ele>
        <time>2026-02-28T09:44:59Z</time>
      </trkpt>
      <trkpt lat="43.38554" lon="-1.6295">
        <ele>48</ele>
        <time>2026-02-28T09:45:05Z</time>
      </trkpt>
      <trkpt lat="43.38555" lon="-1.62716">
        <ele>56</ele>
        <time>2026-02-28T09:45:35Z</time>
      </trkpt>
      <trkpt lat="43.38558" lon="-1.62672">
        <ele>57</ele>
        <time>2026-02-28T09:45:41Z</time>
      </trkpt>
      <trkpt lat="43.38568" lon="-1.62639">
        <ele>56</ele>
        <time>2026-02-28T09:45:45Z</time>
      </trkpt>
      <trkpt lat="43.38598" lon="-1.6258">
        <ele>56</ele>
        <time>2026-02-28T09:45:54Z</time>
      </trkpt>
      <trkpt lat="43.38618" lon="-1.62554">
        <ele>55</ele>
        <time>2026-02-28T09:45:59Z</time>
      </trkpt>
      <trkpt lat="43.38642" lon="-1.62528">
        <ele>56</ele>
        <time>2026-02-28T09:46:05Z</time>
      </trkpt>
      <trkpt lat="43.38649" lon="-1.62504">
        <ele>56</ele>
        <time>2026-02-28T09:46:08Z</time>
      </trkpt>
      <trkpt lat="43.38646" lon="-1.62461">
        <ele>55</ele>
        <time>2026-02-28T09:46:14Z</time>
      </trkpt>
      <trkpt lat="43.38651" lon="-1.62443">
        <ele>56</ele>
        <time>2026-02-28T09:46:16Z</time>
      </trkpt>
      <trkpt lat="43.38706" lon="-1.62404">
        <ele>59</ele>
        <time>2026-02-28T09:46:27Z</time>
      </trkpt>
      <trkpt lat="43.38731" lon="-1.62393">
        <ele>60</ele>
        <time>2026-02-28T09:46:32Z</time>
      </trkpt>
      <trkpt lat="43.38744" lon="-1.62391">
        <ele>61</ele>
        <time>2026-02-28T09:46:34Z</time>
      </trkpt>
      <trkpt lat="43.3874" lon="-1.62345">
        <ele>60</ele>
        <time>2026-02-28T09:46:40Z</time>
      </trkpt>
      <trkpt lat="43.3871" lon="-1.62133">
        <ele>61</ele>
        <time>2026-02-28T09:47:08Z</time>
      </trkpt>
      <trkpt lat="43.38697" lon="-1.62075">
        <ele>63</ele>
        <time>2026-02-28T09:47:16Z</time>
      </trkpt>
      <trkpt lat="43.38687" lon="-1.62043">
        <ele>64</ele>
        <time>2026-02-28T09:47:20Z</time>
      </trkpt>
      <trkpt lat="43.38666" lon="-1.61994">
        <ele>67</ele>
        <time>2026-02-28T09:47:28Z</time>
      </trkpt>
      <trkpt lat="43.3865" lon="-1.61967">
        <ele>69</ele>
        <time>2026-02-28T09:47:32Z</time>
      </trkpt>
      <trkpt lat="43.38636" lon="-1.61948">
        <ele>71</ele>
        <time>2026-02-28T09:47:36Z</time>
      </trkpt>
      <trkpt lat="43.3862" lon="-1.61929">
        <ele>73</ele>
        <time>2026-02-28T09:47:40Z</time>
      </trkpt>
      <trkpt lat="43.38584" lon="-1.61895">
        <ele>75</ele>
        <time>2026-02-28T09:47:47Z</time>
      </trkpt>
      <trkpt lat="43.38566" lon="-1.61881">
        <ele>75</ele>
        <time>2026-02-28T09:47:51Z</time>
      </trkpt>
      <trkpt lat="43.38555" lon="-1.61875">
        <ele>76</ele>
        <time>2026-02-28T09:47:53Z</time>
      </trkpt>
      <trkpt lat="43.38521" lon="-1.61862">
        <ele>77</ele>
        <time>2026-02-28T09:47:59Z</time>
      </trkpt>
      <trkpt lat="43.38487" lon="-1.6185">
        <ele>78</ele>
        <time>2026-02-28T09:48:06Z</time>
      </trkpt>
      <trkpt lat="43.38468" lon="-1.61846">
        <ele>78</ele>
        <time>2026-02-28T09:48:09Z</time>
      </trkpt>
      <trkpt lat="43.38452" lon="-1.61846">
        <ele>78</ele>
        <time>2026-02-28T09:48:12Z</time>
      </trkpt>
      <trkpt lat="43.38354" lon="-1.61859">
        <ele>78</ele>
        <time>2026-02-28T09:48:29Z</time>
      </trkpt>
      <trkpt lat="43.38335" lon="-1.61855">
        <ele>78</ele>
        <time>2026-02-28T09:48:33Z</time>
      </trkpt>
      <trkpt lat="43.38303" lon="-1.6184">
        <ele>79</ele>
        <time>2026-02-28T09:48:39Z</time>
      </trkpt>
      <trkpt lat="43.38131" lon="-1.61673">
        <ele>74</ele>
        <time>2026-02-28T09:49:16Z</time>
      </trkpt>
      <trkpt lat="43.38102" lon="-1.61637">
        <ele>74</ele>
        <time>2026-02-28T09:49:23Z</time>
      </trkpt>
      <trkpt lat="43.38088" lon="-1.61593">
        <ele>76</ele>
        <time>2026-02-28T09:49:30Z</time>
      </trkpt>
      <trkpt lat="43.38082" lon="-1.61527">
        <ele>78</ele>
        <time>2026-02-28T09:49:38Z</time>
      </trkpt>
      <trkpt lat="43.38084" lon="-1.61464">
        <ele>78</ele>
        <time>2026-02-28T09:49:46Z</time>
      </trkpt>
      <trkpt lat="43.38096" lon="-1.61353">
        <ele>78</ele>
        <time>2026-02-28T09:50:01Z</time>
      </trkpt>
      <trkpt lat="43.38114" lon="-1.61112">
        <ele>78</ele>
        <time>2026-02-28T09:50:32Z</time>
      </trkpt>
      <trkpt lat="43.38098" lon="-1.60992">
        <ele>78</ele>
        <time>2026-02-28T09:50:48Z</time>
      </trkpt>
      <trkpt lat="43.38055" lon="-1.6092">
        <ele>77</ele>
        <time>2026-02-28T09:51:00Z</time>
      </trkpt>
      <trkpt lat="43.3805" lon="-1.60899">
        <ele>78</ele>
        <time>2026-02-28T09:51:03Z</time>
      </trkpt>
      <trkpt lat="43.38051" lon="-1.60873">
        <ele>79</ele>
        <time>2026-02-28T09:51:06Z</time>
      </trkpt>
      <trkpt lat="43.38065" lon="-1.60831">
        <ele>79</ele>
        <time>2026-02-28T09:51:12Z</time>
      </trkpt>
      <trkpt lat="43.38072" lon="-1.60794">
        <ele>80</ele>
        <time>2026-02-28T09:51:17Z</time>
      </trkpt>
      <trkpt lat="43.38074" lon="-1.60737">
        <ele>83</ele>
        <time>2026-02-28T09:51:24Z</time>
      </trkpt>
      <trkpt lat="43.3807" lon="-1.60651">
        <ele>84</ele>
        <time>2026-02-28T09:51:36Z</time>
      </trkpt>
      <trkpt lat="43.38091" lon="-1.60474">
        <ele>82</ele>
        <time>2026-02-28T09:51:59Z</time>
      </trkpt>
      <trkpt lat="43.38087" lon="-1.60427">
        <ele>81</ele>
        <time>2026-02-28T09:52:05Z</time>
      </trkpt>
      <trkpt lat="43.38054" lon="-1.6027">
        <ele>78</ele>
        <time>2026-02-28T09:52:26Z</time>
      </trkpt>
      <trkpt lat="43.38045" lon="-1.60246">
        <ele>78</ele>
        <time>2026-02-28T09:52:30Z</time>
      </trkpt>
      <trkpt lat="43.38037" lon="-1.60229">
        <ele>78</ele>
        <time>2026-02-28T09:52:32Z</time>
      </trkpt>
      <trkpt lat="43.37864" lon="-1.60003">
        <ele>83</ele>
        <time>2026-02-28T09:53:15Z</time>
      </trkpt>
      <trkpt lat="43.37847" lon="-1.59972">
        <ele>82</ele>
        <time>2026-02-28T09:53:20Z</time>
      </trkpt>
      <trkpt lat="43.37839" lon="-1.59949">
        <ele>82</ele>
        <time>2026-02-28T09:53:23Z</time>
      </trkpt>
      <trkpt lat="43.37815" lon="-1.59712">
        <ele>84</ele>
        <time>2026-02-28T09:53:54Z</time>
      </trkpt>
      <trkpt lat="43.37805" lon="-1.59672">
        <ele>84</ele>
        <time>2026-02-28T09:53:59Z</time>
      </trkpt>
      <trkpt lat="43.37724" lon="-1.5947">
        <ele>81</ele>
        <time>2026-02-28T09:54:29Z</time>
      </trkpt>
      <trkpt lat="43.37715" lon="-1.59453">
        <ele>80</ele>
        <time>2026-02-28T09:54:32Z</time>
      </trkpt>
      <trkpt lat="43.37701" lon="-1.5944">
        <ele>80</ele>
        <time>2026-02-28T09:54:35Z</time>
      </trkpt>
      <trkpt lat="43.37687" lon="-1.59434">
        <ele>79</ele>
        <time>2026-02-28T09:54:38Z</time>
      </trkpt>
      <trkpt lat="43.37671" lon="-1.59432">
        <ele>80</ele>
        <time>2026-02-28T09:54:40Z</time>
      </trkpt>
      <trkpt lat="43.3759" lon="-1.59439">
        <ele>86</ele>
        <time>2026-02-28T09:54:55Z</time>
      </trkpt>
      <trkpt lat="43.37553" lon="-1.59439">
        <ele>87</ele>
        <time>2026-02-28T09:55:01Z</time>
      </trkpt>
      <trkpt lat="43.37538" lon="-1.59436">
        <ele>87</ele>
        <time>2026-02-28T09:55:04Z</time>
      </trkpt>
      <trkpt lat="43.37527" lon="-1.5943">
        <ele>87</ele>
        <time>2026-02-28T09:55:06Z</time>
      </trkpt>
      <trkpt lat="43.37512" lon="-1.59415">
        <ele>88</ele>
        <time>2026-02-28T09:55:09Z</time>
      </trkpt>
      <trkpt lat="43.37507" lon="-1.59403">
        <ele>88</ele>
        <time>2026-02-28T09:55:11Z</time>
      </trkpt>
      <trkpt lat="43.37502" lon="-1.59383">
        <ele>88</ele>
        <time>2026-02-28T09:55:14Z</time>
      </trkpt>
      <trkpt lat="43.3747" lon="-1.59186">
        <ele>84</ele>
        <time>2026-02-28T09:55:40Z</time>
      </trkpt>
      <trkpt lat="43.37487" lon="-1.59145">
        <ele>87</ele>
        <time>2026-02-28T09:55:46Z</time>
      </trkpt>
      <trkpt lat="43.37497" lon="-1.5913">
        <ele>89</ele>
        <time>2026-02-28T09:55:49Z</time>
      </trkpt>
      <trkpt lat="43.37522" lon="-1.5911">
        <ele>88</ele>
        <time>2026-02-28T09:55:54Z</time>
      </trkpt>
      <trkpt lat="43.37536" lon="-1.59102">
        <ele>88</ele>
        <time>2026-02-28T09:55:57Z</time>
      </trkpt>
      <trkpt lat="43.37601" lon="-1.59091">
        <ele>84</ele>
        <time>2026-02-28T09:56:08Z</time>
      </trkpt>
      <trkpt lat="43.37625" lon="-1.59072">
        <ele>83</ele>
        <time>2026-02-28T09:56:13Z</time>
      </trkpt>
      <trkpt lat="43.37641" lon="-1.59065">
        <ele>82</ele>
        <time>2026-02-28T09:56:16Z</time>
      </trkpt>
      <trkpt lat="43.37656" lon="-1.59052">
        <ele>80</ele>
        <time>2026-02-28T09:56:19Z</time>
      </trkpt>
      <trkpt lat="43.37676" lon="-1.59026">
        <ele>78</ele>
        <time>2026-02-28T09:56:24Z</time>
      </trkpt>
      <trkpt lat="43.37709" lon="-1.59005">
        <ele>77</ele>
        <time>2026-02-28T09:56:31Z</time>
      </trkpt>
      <trkpt lat="43.37739" lon="-1.58991">
        <ele>77</ele>
        <time>2026-02-28T09:56:36Z</time>
      </trkpt>
      <trkpt lat="43.37768" lon="-1.58986">
        <ele>76</ele>
        <time>2026-02-28T09:56:42Z</time>
      </trkpt>
      <trkpt lat="43.37781" lon="-1.58982">
        <ele>76</ele>
        <time>2026-02-28T09:56:44Z</time>
      </trkpt>
      <trkpt lat="43.37792" lon="-1.58973">
        <ele>77</ele>
        <time>2026-02-28T09:56:46Z</time>
      </trkpt>
      <trkpt lat="43.37805" lon="-1.5896">
        <ele>77</ele>
        <time>2026-02-28T09:56:49Z</time>
      </trkpt>
      <trkpt lat="43.3783" lon="-1.58918">
        <ele>79</ele>
        <time>2026-02-28T09:56:56Z</time>
      </trkpt>
      <trkpt lat="43.37838" lon="-1.58898">
        <ele>79</ele>
        <time>2026-02-28T09:56:59Z</time>
      </trkpt>
      <trkpt lat="43.37843" lon="-1.58874">
        <ele>78</ele>
        <time>2026-02-28T09:57:02Z</time>
      </trkpt>
      <trkpt lat="43.37844" lon="-1.5885">
        <ele>78</ele>
        <time>2026-02-28T09:57:05Z</time>
      </trkpt>
      <trkpt lat="43.3783" lon="-1.58744">
        <ele>75</ele>
        <time>2026-02-28T09:57:19Z</time>
      </trkpt>
      <trkpt lat="43.37831" lon="-1.58721">
        <ele>75</ele>
        <time>2026-02-28T09:57:22Z</time>
      </trkpt>
      <trkpt lat="43.37836" lon="-1.58691">
        <ele>75</ele>
        <time>2026-02-28T09:57:26Z</time>
      </trkpt>
      <trkpt lat="43.37865" lon="-1.58578">
        <ele>75</ele>
        <time>2026-02-28T09:57:42Z</time>
      </trkpt>
      <trkpt lat="43.37865" lon="-1.58557">
        <ele>76</ele>
        <time>2026-02-28T09:57:45Z</time>
      </trkpt>
      <trkpt lat="43.37857" lon="-1.58507">
        <ele>78</ele>
        <time>2026-02-28T09:57:51Z</time>
      </trkpt>
      <trkpt lat="43.37857" lon="-1.58484">
        <ele>78</ele>
        <time>2026-02-28T09:57:54Z</time>
      </trkpt>
      <trkpt lat="43.3786" lon="-1.58462">
        <ele>79</ele>
        <time>2026-02-28T09:57:57Z</time>
      </trkpt>
      <trkpt lat="43.37872" lon="-1.58427">
        <ele>78</ele>
        <time>2026-02-28T09:58:02Z</time>
      </trkpt>
      <trkpt lat="43.37886" lon="-1.58405">
        <ele>77</ele>
        <time>2026-02-28T09:58:06Z</time>
      </trkpt>
      <trkpt lat="43.37892" lon="-1.5839">
        <ele>77</ele>
        <time>2026-02-28T09:58:08Z</time>
      </trkpt>
      <trkpt lat="43.37895" lon="-1.58377">
        <ele>78</ele>
        <time>2026-02-28T09:58:10Z</time>
      </trkpt>
      <trkpt lat="43.37896" lon="-1.58355">
        <ele>79</ele>
        <time>2026-02-28T09:58:13Z</time>
      </trkpt>
      <trkpt lat="43.37893" lon="-1.58317">
        <ele>80</ele>
        <time>2026-02-28T09:58:18Z</time>
      </trkpt>
      <trkpt lat="43.37895" lon="-1.58294">
        <ele>81</ele>
        <time>2026-02-28T09:58:21Z</time>
      </trkpt>
      <trkpt lat="43.379" lon="-1.58269">
        <ele>82</ele>
        <time>2026-02-28T09:58:24Z</time>
      </trkpt>
      <trkpt lat="43.37905" lon="-1.58252">
        <ele>83</ele>
        <time>2026-02-28T09:58:26Z</time>
      </trkpt>
      <trkpt lat="43.37934" lon="-1.58205">
        <ele>84</ele>
        <time>2026-02-28T09:58:34Z</time>
      </trkpt>
      <trkpt lat="43.37947" lon="-1.58177">
        <ele>85</ele>
        <time>2026-02-28T09:58:39Z</time>
      </trkpt>
      <trkpt lat="43.3796" lon="-1.58133">
        <ele>85</ele>
        <time>2026-02-28T09:58:45Z</time>
      </trkpt>
      <trkpt lat="43.37969" lon="-1.58094">
        <ele>86</ele>
        <time>2026-02-28T09:58:50Z</time>
      </trkpt>
      <trkpt lat="43.37986" lon="-1.58063">
        <ele>88</ele>
        <time>2026-02-28T09:58:55Z</time>
      </trkpt>
      <trkpt lat="43.38009" lon="-1.58039">
        <ele>90</ele>
        <time>2026-02-28T09:59:00Z</time>
      </trkpt>
      <trkpt lat="43.38042" lon="-1.58022">
        <ele>93</ele>
        <time>2026-02-28T09:59:06Z</time>
      </trkpt>
      <trkpt lat="43.38057" lon="-1.58018">
        <ele>94</ele>
        <time>2026-02-28T09:59:09Z</time>
      </trkpt>
      <trkpt lat="43.38189" lon="-1.57997">
        <ele>97</ele>
        <time>2026-02-28T09:59:33Z</time>
      </trkpt>
      <trkpt lat="43.38209" lon="-1.5799">
        <ele>97</ele>
        <time>2026-02-28T09:59:36Z</time>
      </trkpt>
      <trkpt lat="43.38225" lon="-1.57979">
        <ele>97</ele>
        <time>2026-02-28T09:59:40Z</time>
      </trkpt>
      <trkpt lat="43.38242" lon="-1.57961">
        <ele>98</ele>
        <time>2026-02-28T09:59:43Z</time>
      </trkpt>
      <trkpt lat="43.38252" lon="-1.57943">
        <ele>100</ele>
        <time>2026-02-28T09:59:46Z</time>
      </trkpt>
      <trkpt lat="43.38258" lon="-1.57924">
        <ele>101</ele>
        <time>2026-02-28T09:59:49Z</time>
      </trkpt>
      <trkpt lat="43.38292" lon="-1.57809">
        <ele>100</ele>
        <time>2026-02-28T10:00:05Z</time>
      </trkpt>
      <trkpt lat="43.38302" lon="-1.57745">
        <ele>96</ele>
        <time>2026-02-28T10:00:14Z</time>
      </trkpt>
      <trkpt lat="43.38315" lon="-1.57602">
        <ele>91</ele>
        <time>2026-02-28T10:00:32Z</time>
      </trkpt>
      <trkpt lat="43.38313" lon="-1.57565">
        <ele>91</ele>
        <time>2026-02-28T10:00:37Z</time>
      </trkpt>
      <trkpt lat="43.38307" lon="-1.57543">
        <ele>92</ele>
        <time>2026-02-28T10:00:40Z</time>
      </trkpt>
      <trkpt lat="43.38301" lon="-1.57526">
        <ele>92</ele>
        <time>2026-02-28T10:00:43Z</time>
      </trkpt>
      <trkpt lat="43.3829" lon="-1.57507">
        <ele>92</ele>
        <time>2026-02-28T10:00:46Z</time>
      </trkpt>
      <trkpt lat="43.38279" lon="-1.57494">
        <ele>92</ele>
        <time>2026-02-28T10:00:48Z</time>
      </trkpt>
      <trkpt lat="43.38252" lon="-1.57473">
        <ele>93</ele>
        <time>2026-02-28T10:00:54Z</time>
      </trkpt>
      <trkpt lat="43.38237" lon="-1.57453">
        <ele>94</ele>
        <time>2026-02-28T10:00:57Z</time>
      </trkpt>
      <trkpt lat="43.38225" lon="-1.57427">
        <ele>94</ele>
        <time>2026-02-28T10:01:01Z</time>
      </trkpt>
      <trkpt lat="43.38216" lon="-1.57397">
        <ele>94</ele>
        <time>2026-02-28T10:01:06Z</time>
      </trkpt>
      <trkpt lat="43.38215" lon="-1.57365">
        <ele>94</ele>
        <time>2026-02-28T10:01:10Z</time>
      </trkpt>
      <trkpt lat="43.38216" lon="-1.57298">
        <ele>94</ele>
        <time>2026-02-28T10:01:18Z</time>
      </trkpt>
      <trkpt lat="43.38241" lon="-1.57172">
        <ele>92</ele>
        <time>2026-02-28T10:01:35Z</time>
      </trkpt>
      <trkpt lat="43.38254" lon="-1.57132">
        <ele>92</ele>
        <time>2026-02-28T10:01:41Z</time>
      </trkpt>
      <trkpt lat="43.38267" lon="-1.57104">
        <ele>92</ele>
        <time>2026-02-28T10:01:45Z</time>
      </trkpt>
      <trkpt lat="43.38289" lon="-1.57074">
        <ele>92</ele>
        <time>2026-02-28T10:01:51Z</time>
      </trkpt>
      <trkpt lat="43.383" lon="-1.57051">
        <ele>93</ele>
        <time>2026-02-28T10:01:54Z</time>
      </trkpt>
      <trkpt lat="43.38309" lon="-1.57023">
        <ele>93</ele>
        <time>2026-02-28T10:01:58Z</time>
      </trkpt>
      <trkpt lat="43.38315" lon="-1.56991">
        <ele>93</ele>
        <time>2026-02-28T10:02:03Z</time>
      </trkpt>
      <trkpt lat="43.38318" lon="-1.56959">
        <ele>92</ele>
        <time>2026-02-28T10:02:07Z</time>
      </trkpt>
      <trkpt lat="43.38314" lon="-1.56913">
        <ele>91</ele>
        <time>2026-02-28T10:02:13Z</time>
      </trkpt>
      <trkpt lat="43.38302" lon="-1.56875">
        <ele>92</ele>
        <time>2026-02-28T10:02:18Z</time>
      </trkpt>
      <trkpt lat="43.38286" lon="-1.56846">
        <ele>92</ele>
        <time>2026-02-28T10:02:23Z</time>
      </trkpt>
      <trkpt lat="43.38274" lon="-1.5683">
        <ele>92</ele>
        <time>2026-02-28T10:02:26Z</time>
      </trkpt>
      <trkpt lat="43.3825" lon="-1.56814">
        <ele>93</ele>
        <time>2026-02-28T10:02:31Z</time>
      </trkpt>
      <trkpt lat="43.38227" lon="-1.56786">
        <ele>91</ele>
        <time>2026-02-28T10:02:36Z</time>
      </trkpt>
      <trkpt lat="43.38208" lon="-1.56756">
        <ele>90</ele>
        <time>2026-02-28T10:02:41Z</time>
      </trkpt>
      <trkpt lat="43.38205" lon="-1.56741">
        <ele>90</ele>
        <time>2026-02-28T10:02:43Z</time>
      </trkpt>
      <trkpt lat="43.38207" lon="-1.56714">
        <ele>90</ele>
        <time>2026-02-28T10:02:47Z</time>
      </trkpt>
      <trkpt lat="43.38128" lon="-1.56707">
        <ele>86</ele>
        <time>2026-02-28T10:03:01Z</time>
      </trkpt>
      <trkpt lat="43.38092" lon="-1.56706">
        <ele>85</ele>
        <time>2026-02-28T10:03:07Z</time>
      </trkpt>
      <trkpt lat="43.38073" lon="-1.56703">
        <ele>84</ele>
        <time>2026-02-28T10:03:11Z</time>
      </trkpt>
      <trkpt lat="43.38057" lon="-1.56695">
        <ele>84</ele>
        <time>2026-02-28T10:03:14Z</time>
      </trkpt>
      <trkpt lat="43.38042" lon="-1.5668">
        <ele>83</ele>
        <time>2026-02-28T10:03:17Z</time>
      </trkpt>
      <trkpt lat="43.38022" lon="-1.56649">
        <ele>82</ele>
        <time>2026-02-28T10:03:22Z</time>
      </trkpt>
      <trkpt lat="43.38007" lon="-1.5663">
        <ele>80</ele>
        <time>2026-02-28T10:03:26Z</time>
      </trkpt>
      <trkpt lat="43.3782" lon="-1.56433">
        <ele>77</ele>
        <time>2026-02-28T10:04:08Z</time>
      </trkpt>
      <trkpt lat="43.3778" lon="-1.56395">
        <ele>77</ele>
        <time>2026-02-28T10:04:16Z</time>
      </trkpt>
      <trkpt lat="43.37742" lon="-1.56366">
        <ele>78</ele>
        <time>2026-02-28T10:04:24Z</time>
      </trkpt>
      <trkpt lat="43.37716" lon="-1.56354">
        <ele>78</ele>
        <time>2026-02-28T10:04:29Z</time>
      </trkpt>
      <trkpt lat="43.37556" lon="-1.56315">
        <ele>86</ele>
        <time>2026-02-28T10:04:58Z</time>
      </trkpt>
      <trkpt lat="43.37544" lon="-1.56266">
        <ele>87</ele>
        <time>2026-02-28T10:05:05Z</time>
      </trkpt>
      <trkpt lat="43.37514" lon="-1.56077">
        <ele>86</ele>
        <time>2026-02-28T10:05:30Z</time>
      </trkpt>
      <trkpt lat="43.37515" lon="-1.56045">
        <ele>87</ele>
        <time>2026-02-28T10:05:34Z</time>
      </trkpt>
      <trkpt lat="43.37562" lon="-1.56002">
        <ele>86</ele>
        <time>2026-02-28T10:05:44Z</time>
      </trkpt>
      <trkpt lat="43.37573" lon="-1.55983">
        <ele>86</ele>
        <time>2026-02-28T10:05:47Z</time>
      </trkpt>
      <trkpt lat="43.37577" lon="-1.55959">
        <ele>87</ele>
        <time>2026-02-28T10:05:50Z</time>
      </trkpt>
      <trkpt lat="43.37575" lon="-1.55943">
        <ele>88</ele>
        <time>2026-02-28T10:05:52Z</time>
      </trkpt>
      <trkpt lat="43.37549" lon="-1.55872">
        <ele>91</ele>
        <time>2026-02-28T10:06:03Z</time>
      </trkpt>
      <trkpt lat="43.37516" lon="-1.55802">
        <ele>93</ele>
        <time>2026-02-28T10:06:13Z</time>
      </trkpt>
      <trkpt lat="43.37499" lon="-1.55783">
        <ele>93</ele>
        <time>2026-02-28T10:06:17Z</time>
      </trkpt>
      <trkpt lat="43.37456" lon="-1.55752">
        <ele>93</ele>
        <time>2026-02-28T10:06:26Z</time>
      </trkpt>
      <trkpt lat="43.37446" lon="-1.55735">
        <ele>92</ele>
        <time>2026-02-28T10:06:29Z</time>
      </trkpt>
      <trkpt lat="43.37438" lon="-1.55669">
        <ele>91</ele>
        <time>2026-02-28T10:06:37Z</time>
      </trkpt>
      <trkpt lat="43.37439" lon="-1.55621">
        <ele>91</ele>
        <time>2026-02-28T10:06:44Z</time>
      </trkpt>
      <trkpt lat="43.37435" lon="-1.55589">
        <ele>91</ele>
        <time>2026-02-28T10:06:48Z</time>
      </trkpt>
      <trkpt lat="43.37412" lon="-1.55546">
        <ele>93</ele>
        <time>2026-02-28T10:06:55Z</time>
      </trkpt>
      <trkpt lat="43.37399" lon="-1.5553">
        <ele>93</ele>
        <time>2026-02-28T10:06:58Z</time>
      </trkpt>
      <trkpt lat="43.37332" lon="-1.55489">
        <ele>99</ele>
        <time>2026-02-28T10:07:11Z</time>
      </trkpt>
      <trkpt lat="43.37305" lon="-1.55483">
        <ele>99</ele>
        <time>2026-02-28T10:07:16Z</time>
      </trkpt>
      <trkpt lat="43.37211" lon="-1.55481">
        <ele>98</ele>
        <time>2026-02-28T10:07:32Z</time>
      </trkpt>
      <trkpt lat="43.37174" lon="-1.55473">
        <ele>96</ele>
        <time>2026-02-28T10:07:39Z</time>
      </trkpt>
      <trkpt lat="43.37068" lon="-1.55527">
        <ele>97</ele>
        <time>2026-02-28T10:07:59Z</time>
      </trkpt>
      <trkpt lat="43.37003" lon="-1.55534">
        <ele>100</ele>
        <time>2026-02-28T10:08:11Z</time>
      </trkpt>
      <trkpt lat="43.36987" lon="-1.55526">
        <ele>102</ele>
        <time>2026-02-28T10:08:14Z</time>
      </trkpt>
      <trkpt lat="43.36974" lon="-1.55511">
        <ele>103</ele>
        <time>2026-02-28T10:08:17Z</time>
      </trkpt>
      <trkpt lat="43.36975" lon="-1.55454">
        <ele>100</ele>
        <time>2026-02-28T10:08:24Z</time>
      </trkpt>
      <trkpt lat="43.36969" lon="-1.55434">
        <ele>99</ele>
        <time>2026-02-28T10:08:27Z</time>
      </trkpt>
      <trkpt lat="43.36953" lon="-1.55421">
        <ele>100</ele>
        <time>2026-02-28T10:08:30Z</time>
      </trkpt>
      <trkpt lat="43.36915" lon="-1.55417">
        <ele>105</ele>
        <time>2026-02-28T10:08:37Z</time>
      </trkpt>
      <trkpt lat="43.36897" lon="-1.5541">
        <ele>105</ele>
        <time>2026-02-28T10:08:40Z</time>
      </trkpt>
      <trkpt lat="43.36886" lon="-1.55399">
        <ele>104</ele>
        <time>2026-02-28T10:08:43Z</time>
      </trkpt>
      <trkpt lat="43.36848" lon="-1.55386">
        <ele>105</ele>
        <time>2026-02-28T10:08:50Z</time>
      </trkpt>
      <trkpt lat="43.36833" lon="-1.55378">
        <ele>105</ele>
        <time>2026-02-28T10:08:53Z</time>
      </trkpt>
      <trkpt lat="43.36747" lon="-1.55241">
        <ele>112</ele>
        <time>2026-02-28T10:09:16Z</time>
      </trkpt>
      <trkpt lat="43.3672" lon="-1.55172">
        <ele>111</ele>
        <time>2026-02-28T10:09:26Z</time>
      </trkpt>
      <trkpt lat="43.36657" lon="-1.55105">
        <ele>105</ele>
        <time>2026-02-28T10:09:40Z</time>
      </trkpt>
      <trkpt lat="43.36624" lon="-1.55057">
        <ele>102</ele>
        <time>2026-02-28T10:09:49Z</time>
      </trkpt>
      <trkpt lat="43.36608" lon="-1.54987">
        <ele>102</ele>
        <time>2026-02-28T10:09:58Z</time>
      </trkpt>
      <trkpt lat="43.36619" lon="-1.54834">
        <ele>103</ele>
        <time>2026-02-28T10:10:18Z</time>
      </trkpt>
      <trkpt lat="43.36621" lon="-1.54776">
        <ele>105</ele>
        <time>2026-02-28T10:10:26Z</time>
      </trkpt>
      <trkpt lat="43.36641" lon="-1.54725">
        <ele>106</ele>
        <time>2026-02-28T10:10:33Z</time>
      </trkpt>
      <trkpt lat="43.36646" lon="-1.5469">
        <ele>105</ele>
        <time>2026-02-28T10:10:38Z</time>
      </trkpt>
      <trkpt lat="43.36637" lon="-1.54647">
        <ele>102</ele>
        <time>2026-02-28T10:10:44Z</time>
      </trkpt>
      <trkpt lat="43.36619" lon="-1.54616">
        <ele>98</ele>
        <time>2026-02-28T10:10:49Z</time>
      </trkpt>
      <trkpt lat="43.36591" lon="-1.54599">
        <ele>98</ele>
        <time>2026-02-28T10:10:54Z</time>
      </trkpt>
      <trkpt lat="43.36583" lon="-1.54578">
        <ele>95</ele>
        <time>2026-02-28T10:10:57Z</time>
      </trkpt>
      <trkpt lat="43.36571" lon="-1.54513">
        <ele>89</ele>
        <time>2026-02-28T10:11:06Z</time>
      </trkpt>
      <trkpt lat="43.36551" lon="-1.54482">
        <ele>89</ele>
        <time>2026-02-28T10:11:11Z</time>
      </trkpt>
      <trkpt lat="43.36549" lon="-1.54474">
        <ele>89</ele>
        <time>2026-02-28T10:11:13Z</time>
      </trkpt>
      <trkpt lat="43.36529" lon="-1.54476">
        <ele>90</ele>
        <time>2026-02-28T10:11:16Z</time>
      </trkpt>
      <trkpt lat="43.3649" lon="-1.54486">
        <ele>90</ele>
        <time>2026-02-28T10:11:23Z</time>
      </trkpt>
      <trkpt lat="43.36384" lon="-1.54515">
        <ele>85</ele>
        <time>2026-02-28T10:11:42Z</time>
      </trkpt>
      <trkpt lat="43.3637" lon="-1.54515">
        <ele>84</ele>
        <time>2026-02-28T10:11:45Z</time>
      </trkpt>
      <trkpt lat="43.36347" lon="-1.54511">
        <ele>83</ele>
        <time>2026-02-28T10:11:49Z</time>
      </trkpt>
      <trkpt lat="43.36338" lon="-1.54516">
        <ele>82</ele>
        <time>2026-02-28T10:11:51Z</time>
      </trkpt>
      <trkpt lat="43.3632" lon="-1.54556">
        <ele>76</ele>
        <time>2026-02-28T10:11:57Z</time>
      </trkpt>
      <trkpt lat="43.36304" lon="-1.54576">
        <ele>72</ele>
        <time>2026-02-28T10:12:01Z</time>
      </trkpt>
      <trkpt lat="43.3629" lon="-1.54587">
        <ele>70</ele>
        <time>2026-02-28T10:12:04Z</time>
      </trkpt>
      <trkpt lat="43.36274" lon="-1.54596">
        <ele>69</ele>
        <time>2026-02-28T10:12:07Z</time>
      </trkpt>
      <trkpt lat="43.36233" lon="-1.54606">
        <ele>67</ele>
        <time>2026-02-28T10:12:14Z</time>
      </trkpt>
      <trkpt lat="43.36199" lon="-1.54619">
        <ele>67</ele>
        <time>2026-02-28T10:12:20Z</time>
      </trkpt>
      <trkpt lat="43.36068" lon="-1.54671">
        <ele>58</ele>
        <time>2026-02-28T10:12:45Z</time>
      </trkpt>
      <trkpt lat="43.36026" lon="-1.54699">
        <ele>55</ele>
        <time>2026-02-28T10:12:53Z</time>
      </trkpt>
      <trkpt lat="43.3601" lon="-1.54708">
        <ele>53</ele>
        <time>2026-02-28T10:12:56Z</time>
      </trkpt>
      <trkpt lat="43.35883" lon="-1.5476">
        <ele>39</ele>
        <time>2026-02-28T10:13:20Z</time>
      </trkpt>
      <trkpt lat="43.35856" lon="-1.54778">
        <ele>36</ele>
        <time>2026-02-28T10:13:25Z</time>
      </trkpt>
      <trkpt lat="43.35848" lon="-1.54788">
        <ele>35</ele>
        <time>2026-02-28T10:13:27Z</time>
      </trkpt>
      <trkpt lat="43.35784" lon="-1.54901">
        <ele>30</ele>
        <time>2026-02-28T10:13:45Z</time>
      </trkpt>
      <trkpt lat="43.35753" lon="-1.54939">
        <ele>27</ele>
        <time>2026-02-28T10:13:53Z</time>
      </trkpt>
      <trkpt lat="43.35639" lon="-1.55061">
        <ele>22</ele>
        <time>2026-02-28T10:14:18Z</time>
      </trkpt>
      <trkpt lat="43.35676" lon="-1.55133">
        <ele>21</ele>
        <time>2026-02-28T10:14:30Z</time>
      </trkpt>
      <trkpt lat="43.35705" lon="-1.55184">
        <ele>22</ele>
        <time>2026-02-28T10:14:38Z</time>
      </trkpt>
      <trkpt lat="43.3574" lon="-1.55234">
        <ele>22</ele>
        <time>2026-02-28T10:14:47Z</time>
      </trkpt>
      <trkpt lat="43.35763" lon="-1.55276">
        <ele>22</ele>
        <time>2026-02-28T10:14:54Z</time>
      </trkpt>
      <trkpt lat="43.35769" lon="-1.55301">
        <ele>22</ele>
        <time>2026-02-28T10:14:57Z</time>
      </trkpt>
      <trkpt lat="43.35798" lon="-1.55504">
        <ele>25</ele>
        <time>2026-02-28T10:15:24Z</time>
      </trkpt>
      <trkpt lat="43.35797" lon="-1.55542">
        <ele>25</ele>
        <time>2026-02-28T10:15:29Z</time>
      </trkpt>
      <trkpt lat="43.35793" lon="-1.55578">
        <ele>24</ele>
        <time>2026-02-28T10:15:34Z</time>
      </trkpt>
      <trkpt lat="43.35784" lon="-1.55615">
        <ele>23</ele>
        <time>2026-02-28T10:15:39Z</time>
      </trkpt>
      <trkpt lat="43.35781" lon="-1.55642">
        <ele>23</ele>
        <time>2026-02-28T10:15:42Z</time>
      </trkpt>
      <trkpt lat="43.3578" lon="-1.55666">
        <ele>23</ele>
        <time>2026-02-28T10:15:45Z</time>
      </trkpt>
      <trkpt lat="43.35787" lon="-1.55898">
        <ele>20</ele>
        <time>2026-02-28T10:16:16Z</time>
      </trkpt>
      <trkpt lat="43.35785" lon="-1.55918">
        <ele>18</ele>
        <time>2026-02-28T10:16:18Z</time>
      </trkpt>
      <trkpt lat="43.35781" lon="-1.55938">
        <ele>18</ele>
        <time>2026-02-28T10:16:21Z</time>
      </trkpt>
      <trkpt lat="43.35774" lon="-1.55958">
        <ele>18</ele>
        <time>2026-02-28T10:16:24Z</time>
      </trkpt>
      <trkpt lat="43.35766" lon="-1.55989">
        <ele>18</ele>
        <time>2026-02-28T10:16:28Z</time>
      </trkpt>
      <trkpt lat="43.35767" lon="-1.55997">
        <ele>18</ele>
        <time>2026-02-28T10:16:29Z</time>
      </trkpt>
      <trkpt lat="43.35764" lon="-1.56008">
        <ele>19</ele>
        <time>2026-02-28T10:16:31Z</time>
      </trkpt>
      <trkpt lat="43.3576" lon="-1.56015">
        <ele>19</ele>
        <time>2026-02-28T10:16:32Z</time>
      </trkpt>
      <trkpt lat="43.35753" lon="-1.56017">
        <ele>19</ele>
        <time>2026-02-28T10:16:33Z</time>
      </trkpt>
      <trkpt lat="43.35747" lon="-1.56016">
        <ele>19</ele>
        <time>2026-02-28T10:16:34Z</time>
      </trkpt>
      <trkpt lat="43.3573" lon="-1.56032">
        <ele>19</ele>
        <time>2026-02-28T10:16:38Z</time>
      </trkpt>
      <trkpt lat="43.35721" lon="-1.56041">
        <ele>19</ele>
        <time>2026-02-28T10:16:40Z</time>
      </trkpt>
      <trkpt lat="43.35652" lon="-1.56087">
        <ele>18</ele>
        <time>2026-02-28T10:16:53Z</time>
      </trkpt>
      <trkpt lat="43.35648" lon="-1.5608">
        <ele>17</ele>
        <time>2026-02-28T10:16:54Z</time>
      </trkpt>
      <trkpt lat="43.35642" lon="-1.56085">
        <ele>17</ele>
        <time>2026-02-28T10:16:56Z</time>
      </trkpt>
      <trkpt lat="43.35635" lon="-1.56094">
        <ele>18</ele>
        <time>2026-02-28T10:16:57Z</time>
      </trkpt>
      <trkpt lat="43.35618" lon="-1.56125">
        <ele>18</ele>
        <time>2026-02-28T10:17:02Z</time>
      </trkpt>
      <trkpt lat="43.35614" lon="-1.56149">
        <ele>19</ele>
        <time>2026-02-28T10:17:06Z</time>
      </trkpt>
      <trkpt lat="43.35609" lon="-1.56223">
        <ele>18</ele>
        <time>2026-02-28T10:17:15Z</time>
      </trkpt>
      <trkpt lat="43.3561" lon="-1.56297">
        <ele>18</ele>
        <time>2026-02-28T10:17:25Z</time>
      </trkpt>
      <trkpt lat="43.35616" lon="-1.56498">
        <ele>18</ele>
        <time>2026-02-28T10:17:51Z</time>
      </trkpt>
      <trkpt lat="43.35622" lon="-1.56509">
        <ele>19</ele>
        <time>2026-02-28T10:17:53Z</time>
      </trkpt>
      <trkpt lat="43.35622" lon="-1.56558">
        <ele>19</ele>
        <time>2026-02-28T10:17:59Z</time>
      </trkpt>
      <trkpt lat="43.35624" lon="-1.56587">
        <ele>19</ele>
        <time>2026-02-28T10:18:03Z</time>
      </trkpt>
      <trkpt lat="43.3563" lon="-1.56589">
        <ele>19</ele>
        <time>2026-02-28T10:18:04Z</time>
      </trkpt>
      <trkpt lat="43.35634" lon="-1.56595">
        <ele>19</ele>
        <time>2026-02-28T10:18:05Z</time>
      </trkpt>
      <trkpt lat="43.35635" lon="-1.56599">
        <ele>19</ele>
        <time>2026-02-28T10:18:05Z</time>
      </trkpt>
      <trkpt lat="43.35632" lon="-1.56611">
        <ele>19</ele>
        <time>2026-02-28T10:18:07Z</time>
      </trkpt>
      <trkpt lat="43.35624" lon="-1.56615">
        <ele>19</ele>
        <time>2026-02-28T10:18:09Z</time>
      </trkpt>
      <trkpt lat="43.35625" lon="-1.56642">
        <ele>19</ele>
        <time>2026-02-28T10:18:12Z</time>
      </trkpt>
      <trkpt lat="43.35617" lon="-1.56692">
        <ele>19</ele>
        <time>2026-02-28T10:18:19Z</time>
      </trkpt>
      <trkpt lat="43.35608" lon="-1.56729">
        <ele>18</ele>
        <time>2026-02-28T10:18:24Z</time>
      </trkpt>
      <trkpt lat="43.35589" lon="-1.56787">
        <ele>17</ele>
        <time>2026-02-28T10:18:32Z</time>
      </trkpt>
      <trkpt lat="43.35585" lon="-1.56813">
        <ele>17</ele>
        <time>2026-02-28T10:18:35Z</time>
      </trkpt>
      <trkpt lat="43.35586" lon="-1.56839">
        <ele>17</ele>
        <time>2026-02-28T10:18:39Z</time>
      </trkpt>
      <trkpt lat="43.35588" lon="-1.56851">
        <ele>17</ele>
        <time>2026-02-28T10:18:40Z</time>
      </trkpt>
      <trkpt lat="43.35597" lon="-1.56872">
        <ele>17</ele>
        <time>2026-02-28T10:18:44Z</time>
      </trkpt>
      <trkpt lat="43.35625" lon="-1.56922">
        <ele>17</ele>
        <time>2026-02-28T10:18:52Z</time>
      </trkpt>
      <trkpt lat="43.35723" lon="-1.57132">
        <ele>15</ele>
        <time>2026-02-28T10:19:24Z</time>
      </trkpt>
      <trkpt lat="43.35733" lon="-1.5716">
        <ele>15</ele>
        <time>2026-02-28T10:19:28Z</time>
      </trkpt>
      <trkpt lat="43.3574" lon="-1.57189">
        <ele>15</ele>
        <time>2026-02-28T10:19:32Z</time>
      </trkpt>
      <trkpt lat="43.35745" lon="-1.57225">
        <ele>14</ele>
        <time>2026-02-28T10:19:37Z</time>
      </trkpt>
      <trkpt lat="43.35763" lon="-1.57418">
        <ele>13</ele>
        <time>2026-02-28T10:20:02Z</time>
      </trkpt>
      <trkpt lat="43.35767" lon="-1.57433">
        <ele>13</ele>
        <time>2026-02-28T10:20:04Z</time>
      </trkpt>
      <trkpt lat="43.35781" lon="-1.57454">
        <ele>13</ele>
        <time>2026-02-28T10:20:08Z</time>
      </trkpt>
      <trkpt lat="43.35787" lon="-1.57459">
        <ele>13</ele>
        <time>2026-02-28T10:20:09Z</time>
      </trkpt>
      <trkpt lat="43.35789" lon="-1.57464">
        <ele>13</ele>
        <time>2026-02-28T10:20:10Z</time>
      </trkpt>
      <trkpt lat="43.35789" lon="-1.5747">
        <ele>13</ele>
        <time>2026-02-28T10:20:10Z</time>
      </trkpt>
      <trkpt lat="43.35785" lon="-1.5748">
        <ele>13</ele>
        <time>2026-02-28T10:20:12Z</time>
      </trkpt>
      <trkpt lat="43.35781" lon="-1.57496">
        <ele>13</ele>
        <time>2026-02-28T10:20:14Z</time>
      </trkpt>
      <trkpt lat="43.35779" lon="-1.57526">
        <ele>13</ele>
        <time>2026-02-28T10:20:18Z</time>
      </trkpt>
      <trkpt lat="43.35779" lon="-1.57552">
        <ele>13</ele>
        <time>2026-02-28T10:20:21Z</time>
      </trkpt>
      <trkpt lat="43.35783" lon="-1.57586">
        <ele>13</ele>
        <time>2026-02-28T10:20:26Z</time>
      </trkpt>
      <trkpt lat="43.35807" lon="-1.5772">
        <ele>12</ele>
        <time>2026-02-28T10:20:44Z</time>
      </trkpt>
      <trkpt lat="43.35838" lon="-1.57869">
        <ele>11</ele>
        <time>2026-02-28T10:21:04Z</time>
      </trkpt>
      <trkpt lat="43.35852" lon="-1.57913">
        <ele>12</ele>
        <time>2026-02-28T10:21:10Z</time>
      </trkpt>
      <trkpt lat="43.35882" lon="-1.57972">
        <ele>11</ele>
        <time>2026-02-28T10:21:19Z</time>
      </trkpt>
      <trkpt lat="43.35894" lon="-1.57993">
        <ele>11</ele>
        <time>2026-02-28T10:21:23Z</time>
      </trkpt>
      <trkpt lat="43.36003" lon="-1.58148">
        <ele>11</ele>
        <time>2026-02-28T10:21:51Z</time>
      </trkpt>
      <trkpt lat="43.36109" lon="-1.58303">
        <ele>12</ele>
        <time>2026-02-28T10:22:18Z</time>
      </trkpt>
      <trkpt lat="43.36129" lon="-1.58341">
        <ele>12</ele>
        <time>2026-02-28T10:22:24Z</time>
      </trkpt>
      <trkpt lat="43.36139" lon="-1.58363">
        <ele>12</ele>
        <time>2026-02-28T10:22:28Z</time>
      </trkpt>
      <trkpt lat="43.36164" lon="-1.58429">
        <ele>12</ele>
        <time>2026-02-28T10:22:37Z</time>
      </trkpt>
      <trkpt lat="43.36257" lon="-1.58723">
        <ele>14</ele>
        <time>2026-02-28T10:23:19Z</time>
      </trkpt>
      <trkpt lat="43.3628" lon="-1.58766">
        <ele>18</ele>
        <time>2026-02-28T10:23:26Z</time>
      </trkpt>
      <trkpt lat="43.36308" lon="-1.58801">
        <ele>19</ele>
        <time>2026-02-28T10:23:32Z</time>
      </trkpt>
      <trkpt lat="43.36402" lon="-1.58885">
        <ele>17</ele>
        <time>2026-02-28T10:23:52Z</time>
      </trkpt>
      <trkpt lat="43.36427" lon="-1.58913">
        <ele>13</ele>
        <time>2026-02-28T10:23:58Z</time>
      </trkpt>
      <trkpt lat="43.36444" lon="-1.58941">
        <ele>12</ele>
        <time>2026-02-28T10:24:03Z</time>
      </trkpt>
      <trkpt lat="43.3646" lon="-1.58976">
        <ele>11</ele>
        <time>2026-02-28T10:24:08Z</time>
      </trkpt>
      <trkpt lat="43.36482" lon="-1.59044">
        <ele>9</ele>
        <time>2026-02-28T10:24:18Z</time>
      </trkpt>
      <trkpt lat="43.36581" lon="-1.59376">
        <ele>9</ele>
        <time>2026-02-28T10:25:04Z</time>
      </trkpt>
      <trkpt lat="43.36589" lon="-1.5943">
        <ele>9</ele>
        <time>2026-02-28T10:25:11Z</time>
      </trkpt>
      <trkpt lat="43.36592" lon="-1.59482">
        <ele>9</ele>
        <time>2026-02-28T10:25:18Z</time>
      </trkpt>
      <trkpt lat="43.36588" lon="-1.59546">
        <ele>11</ele>
        <time>2026-02-28T10:25:26Z</time>
      </trkpt>
      <trkpt lat="43.36567" lon="-1.59809">
        <ele>18</ele>
        <time>2026-02-28T10:26:00Z</time>
      </trkpt>
      <trkpt lat="43.36562" lon="-1.59843">
        <ele>18</ele>
        <time>2026-02-28T10:26:05Z</time>
      </trkpt>
      <trkpt lat="43.36549" lon="-1.59873">
        <ele>17</ele>
        <time>2026-02-28T10:26:09Z</time>
      </trkpt>
      <trkpt lat="43.36533" lon="-1.59897">
        <ele>16</ele>
        <time>2026-02-28T10:26:14Z</time>
      </trkpt>
      <trkpt lat="43.36476" lon="-1.5994">
        <ele>14</ele>
        <time>2026-02-28T10:26:25Z</time>
      </trkpt>
      <trkpt lat="43.36447" lon="-1.59965">
        <ele>14</ele>
        <time>2026-02-28T10:26:31Z</time>
      </trkpt>
      <trkpt lat="43.36418" lon="-1.59996">
        <ele>13</ele>
        <time>2026-02-28T10:26:38Z</time>
      </trkpt>
      <trkpt lat="43.36387" lon="-1.60042">
        <ele>15</ele>
        <time>2026-02-28T10:26:46Z</time>
      </trkpt>
      <trkpt lat="43.36371" lon="-1.60073">
        <ele>15</ele>
        <time>2026-02-28T10:26:51Z</time>
      </trkpt>
      <trkpt lat="43.36336" lon="-1.60166">
        <ele>16</ele>
        <time>2026-02-28T10:27:04Z</time>
      </trkpt>
      <trkpt lat="43.36316" lon="-1.60201">
        <ele>20</ele>
        <time>2026-02-28T10:27:10Z</time>
      </trkpt>
      <trkpt lat="43.36299" lon="-1.60225">
        <ele>21</ele>
        <time>2026-02-28T10:27:15Z</time>
      </trkpt>
      <trkpt lat="43.36264" lon="-1.60257">
        <ele>19</ele>
        <time>2026-02-28T10:27:22Z</time>
      </trkpt>
      <trkpt lat="43.36211" lon="-1.60302">
        <ele>16</ele>
        <time>2026-02-28T10:27:33Z</time>
      </trkpt>
      <trkpt lat="43.36173" lon="-1.60338">
        <ele>13</ele>
        <time>2026-02-28T10:27:41Z</time>
      </trkpt>
      <trkpt lat="43.36153" lon="-1.60362">
        <ele>14</ele>
        <time>2026-02-28T10:27:46Z</time>
      </trkpt>
      <trkpt lat="43.36138" lon="-1.60384">
        <ele>15</ele>
        <time>2026-02-28T10:27:50Z</time>
      </trkpt>
      <trkpt lat="43.36126" lon="-1.60409">
        <ele>15</ele>
        <time>2026-02-28T10:27:54Z</time>
      </trkpt>
      <trkpt lat="43.36116" lon="-1.60439">
        <ele>16</ele>
        <time>2026-02-28T10:27:58Z</time>
      </trkpt>
      <trkpt lat="43.36109" lon="-1.60462">
        <ele>16</ele>
        <time>2026-02-28T10:28:01Z</time>
      </trkpt>
      <trkpt lat="43.36103" lon="-1.60494">
        <ele>17</ele>
        <time>2026-02-28T10:28:06Z</time>
      </trkpt>
      <trkpt lat="43.36102" lon="-1.60519">
        <ele>17</ele>
        <time>2026-02-28T10:28:09Z</time>
      </trkpt>
      <trkpt lat="43.36102" lon="-1.60551">
        <ele>17</ele>
        <time>2026-02-28T10:28:13Z</time>
      </trkpt>
      <trkpt lat="43.36104" lon="-1.60585">
        <ele>18</ele>
        <time>2026-02-28T10:28:17Z</time>
      </trkpt>
      <trkpt lat="43.36118" lon="-1.60724">
        <ele>18</ele>
        <time>2026-02-28T10:28:36Z</time>
      </trkpt>
      <trkpt lat="43.36119" lon="-1.6075">
        <ele>18</ele>
        <time>2026-02-28T10:28:39Z</time>
      </trkpt>
      <trkpt lat="43.36113" lon="-1.60838">
        <ele>16</ele>
        <time>2026-02-28T10:28:50Z</time>
      </trkpt>
      <trkpt lat="43.36105" lon="-1.61018">
        <ele>17</ele>
        <time>2026-02-28T10:29:14Z</time>
      </trkpt>
      <trkpt lat="43.36101" lon="-1.61078">
        <ele>15</ele>
        <time>2026-02-28T10:29:21Z</time>
      </trkpt>
      <trkpt lat="43.36091" lon="-1.61139">
        <ele>13</ele>
        <time>2026-02-28T10:29:30Z</time>
      </trkpt>
      <trkpt lat="43.36075" lon="-1.61188">
        <ele>12</ele>
        <time>2026-02-28T10:29:36Z</time>
      </trkpt>
      <trkpt lat="43.36058" lon="-1.61226">
        <ele>11</ele>
        <time>2026-02-28T10:29:42Z</time>
      </trkpt>
      <trkpt lat="43.36033" lon="-1.61268">
        <ele>11</ele>
        <time>2026-02-28T10:29:49Z</time>
      </trkpt>
      <trkpt lat="43.35934" lon="-1.61396">
        <ele>16</ele>
        <time>2026-02-28T10:30:13Z</time>
      </trkpt>
      <trkpt lat="43.35913" lon="-1.61419">
        <ele>16</ele>
        <time>2026-02-28T10:30:18Z</time>
      </trkpt>
      <trkpt lat="43.35815" lon="-1.61503">
        <ele>12</ele>
        <time>2026-02-28T10:30:39Z</time>
      </trkpt>
      <trkpt lat="43.35787" lon="-1.61535">
        <ele>14</ele>
        <time>2026-02-28T10:30:45Z</time>
      </trkpt>
      <trkpt lat="43.3575" lon="-1.61593">
        <ele>15</ele>
        <time>2026-02-28T10:30:55Z</time>
      </trkpt>
      <trkpt lat="43.35515" lon="-1.61963">
        <ele>18</ele>
        <time>2026-02-28T10:31:59Z</time>
      </trkpt>
      <trkpt lat="43.35486" lon="-1.62001">
        <ele>18</ele>
        <time>2026-02-28T10:32:06Z</time>
      </trkpt>
      <trkpt lat="43.35432" lon="-1.62045">
        <ele>21</ele>
        <time>2026-02-28T10:32:17Z</time>
      </trkpt>
      <trkpt lat="43.35407" lon="-1.6206">
        <ele>21</ele>
        <time>2026-02-28T10:32:22Z</time>
      </trkpt>
      <trkpt lat="43.3524" lon="-1.62126">
        <ele>14</ele>
        <time>2026-02-28T10:32:53Z</time>
      </trkpt>
      <trkpt lat="43.35214" lon="-1.62143">
        <ele>12</ele>
        <time>2026-02-28T10:32:58Z</time>
      </trkpt>
      <trkpt lat="43.35201" lon="-1.62157">
        <ele>12</ele>
        <time>2026-02-28T10:33:01Z</time>
      </trkpt>
      <trkpt lat="43.35181" lon="-1.62185">
        <ele>11</ele>
        <time>2026-02-28T10:33:06Z</time>
      </trkpt>
      <trkpt lat="43.35127" lon="-1.62289">
        <ele>11</ele>
        <time>2026-02-28T10:33:23Z</time>
      </trkpt>
      <trkpt lat="43.35113" lon="-1.62319">
        <ele>10</ele>
        <time>2026-02-28T10:33:27Z</time>
      </trkpt>
      <trkpt lat="43.35109" lon="-1.62334">
        <ele>10</ele>
        <time>2026-02-28T10:33:29Z</time>
      </trkpt>
      <trkpt lat="43.35103" lon="-1.62402">
        <ele>11</ele>
        <time>2026-02-28T10:33:38Z</time>
      </trkpt>
      <trkpt lat="43.35103" lon="-1.62461">
        <ele>10</ele>
        <time>2026-02-28T10:33:46Z</time>
      </trkpt>
      <trkpt lat="43.35111" lon="-1.62501">
        <ele>11</ele>
        <time>2026-02-28T10:33:51Z</time>
      </trkpt>
      <trkpt lat="43.35115" lon="-1.62516">
        <ele>12</ele>
        <time>2026-02-28T10:33:53Z</time>
      </trkpt>
      <trkpt lat="43.35112" lon="-1.62526">
        <ele>11</ele>
        <time>2026-02-28T10:33:55Z</time>
      </trkpt>
      <trkpt lat="43.35106" lon="-1.62531">
        <ele>9</ele>
        <time>2026-02-28T10:33:56Z</time>
      </trkpt>
      <trkpt lat="43.35099" lon="-1.6253">
        <ele>8</ele>
        <time>2026-02-28T10:33:57Z</time>
      </trkpt>
      <trkpt lat="43.35062" lon="-1.62537">
        <ele>6</ele>
        <time>2026-02-28T10:34:04Z</time>
      </trkpt>
      <trkpt lat="43.35033" lon="-1.62537">
        <ele>6</ele>
        <time>2026-02-28T10:34:09Z</time>
      </trkpt>
      <trkpt lat="43.35009" lon="-1.62533">
        <ele>6</ele>
        <time>2026-02-28T10:34:13Z</time>
      </trkpt>
      <trkpt lat="43.34989" lon="-1.6253">
        <ele>6</ele>
        <time>2026-02-28T10:34:17Z</time>
      </trkpt>
      <trkpt lat="43.34949" lon="-1.62522">
        <ele>7</ele>
        <time>2026-02-28T10:34:24Z</time>
      </trkpt>
      <trkpt lat="43.34909" lon="-1.62517">
        <ele>7</ele>
        <time>2026-02-28T10:34:31Z</time>
      </trkpt>
      <trkpt lat="43.349" lon="-1.62524">
        <ele>6</ele>
        <time>2026-02-28T10:34:33Z</time>
      </trkpt>
      <trkpt lat="43.34877" lon="-1.62558">
        <ele>6</ele>
        <time>2026-02-28T10:34:39Z</time>
      </trkpt>
      <trkpt lat="43.34872" lon="-1.6256">
        <ele>6</ele>
        <time>2026-02-28T10:34:40Z</time>
      </trkpt>
      <trkpt lat="43.34839" lon="-1.62552">
        <ele>6</ele>
        <time>2026-02-28T10:34:46Z</time>
      </trkpt>
      <trkpt lat="43.34809" lon="-1.62521">
        <ele>6</ele>
        <time>2026-02-28T10:34:52Z</time>
      </trkpt>
      <trkpt lat="43.34769" lon="-1.62469">
        <ele>6</ele>
        <time>2026-02-28T10:35:02Z</time>
      </trkpt>
      <trkpt lat="43.3467" lon="-1.62365">
        <ele>13</ele>
        <time>2026-02-28T10:35:24Z</time>
      </trkpt>
      <trkpt lat="43.34633" lon="-1.62341">
        <ele>13</ele>
        <time>2026-02-28T10:35:32Z</time>
      </trkpt>
      <trkpt lat="43.34573" lon="-1.62311">
        <ele>14</ele>
        <time>2026-02-28T10:35:43Z</time>
      </trkpt>
      <trkpt lat="43.34526" lon="-1.6231">
        <ele>18</ele>
        <time>2026-02-28T10:35:51Z</time>
      </trkpt>
      <trkpt lat="43.34472" lon="-1.62313">
        <ele>20</ele>
        <time>2026-02-28T10:36:01Z</time>
      </trkpt>
      <trkpt lat="43.34444" lon="-1.62311">
        <ele>21</ele>
        <time>2026-02-28T10:36:06Z</time>
      </trkpt>
      <trkpt lat="43.34448" lon="-1.62357">
        <ele>22</ele>
        <time>2026-02-28T10:36:12Z</time>
      </trkpt>
      <trkpt lat="43.34446" lon="-1.62381">
        <ele>23</ele>
        <time>2026-02-28T10:36:15Z</time>
      </trkpt>
      <trkpt lat="43.34437" lon="-1.624">
        <ele>24</ele>
        <time>2026-02-28T10:36:18Z</time>
      </trkpt>
      <trkpt lat="43.34413" lon="-1.62431">
        <ele>24</ele>
        <time>2026-02-28T10:36:24Z</time>
      </trkpt>
      <trkpt lat="43.3441" lon="-1.62438">
        <ele>24</ele>
        <time>2026-02-28T10:36:25Z</time>
      </trkpt>
      <trkpt lat="43.34385" lon="-1.62513">
        <ele>22</ele>
        <time>2026-02-28T10:36:36Z</time>
      </trkpt>
      <trkpt lat="43.34366" lon="-1.6258">
        <ele>19</ele>
        <time>2026-02-28T10:36:45Z</time>
      </trkpt>
      <trkpt lat="43.34362" lon="-1.62606">
        <ele>18</ele>
        <time>2026-02-28T10:36:48Z</time>
      </trkpt>
      <trkpt lat="43.3436" lon="-1.62626">
        <ele>17</ele>
        <time>2026-02-28T10:36:51Z</time>
      </trkpt>
      <trkpt lat="43.34362" lon="-1.62749">
        <ele>13</ele>
        <time>2026-02-28T10:37:07Z</time>
      </trkpt>
      <trkpt lat="43.34355" lon="-1.62855">
        <ele>12</ele>
        <time>2026-02-28T10:37:21Z</time>
      </trkpt>
      <trkpt lat="43.34344" lon="-1.62964">
        <ele>17</ele>
        <time>2026-02-28T10:37:35Z</time>
      </trkpt>
      <trkpt lat="43.34333" lon="-1.63028">
        <ele>22</ele>
        <time>2026-02-28T10:37:43Z</time>
      </trkpt>
      <trkpt lat="43.34294" lon="-1.63188">
        <ele>32</ele>
        <time>2026-02-28T10:38:05Z</time>
      </trkpt>
      <trkpt lat="43.34276" lon="-1.63237">
        <ele>35</ele>
        <time>2026-02-28T10:38:12Z</time>
      </trkpt>
      <trkpt lat="43.34255" lon="-1.6328">
        <ele>35</ele>
        <time>2026-02-28T10:38:19Z</time>
      </trkpt>
      <trkpt lat="43.34227" lon="-1.63343">
        <ele>36</ele>
        <time>2026-02-28T10:38:29Z</time>
      </trkpt>
      <trkpt lat="43.34222" lon="-1.63363">
        <ele>36</ele>
        <time>2026-02-28T10:38:31Z</time>
      </trkpt>
      <trkpt lat="43.34224" lon="-1.63385">
        <ele>37</ele>
        <time>2026-02-28T10:38:34Z</time>
      </trkpt>
      <trkpt lat="43.34257" lon="-1.63481">
        <ele>40</ele>
        <time>2026-02-28T10:38:48Z</time>
      </trkpt>
      <trkpt lat="43.3426" lon="-1.63493">
        <ele>40</ele>
        <time>2026-02-28T10:38:50Z</time>
      </trkpt>
      <trkpt lat="43.34262" lon="-1.63522">
        <ele>42</ele>
        <time>2026-02-28T10:38:53Z</time>
      </trkpt>
      <trkpt lat="43.34258" lon="-1.63562">
        <ele>44</ele>
        <time>2026-02-28T10:38:59Z</time>
      </trkpt>
      <trkpt lat="43.34246" lon="-1.63597">
        <ele>46</ele>
        <time>2026-02-28T10:39:04Z</time>
      </trkpt>
      <trkpt lat="43.34216" lon="-1.6366">
        <ele>48</ele>
        <time>2026-02-28T10:39:13Z</time>
      </trkpt>
      <trkpt lat="43.34207" lon="-1.63691">
        <ele>49</ele>
        <time>2026-02-28T10:39:18Z</time>
      </trkpt>
      <trkpt lat="43.34207" lon="-1.63727">
        <ele>50</ele>
        <time>2026-02-28T10:39:22Z</time>
      </trkpt>
      <trkpt lat="43.34223" lon="-1.63792">
        <ele>51</ele>
        <time>2026-02-28T10:39:31Z</time>
      </trkpt>
      <trkpt lat="43.34228" lon="-1.63827">
        <ele>50</ele>
        <time>2026-02-28T10:39:36Z</time>
      </trkpt>
      <trkpt lat="43.34229" lon="-1.63858">
        <ele>49</ele>
        <time>2026-02-28T10:39:40Z</time>
      </trkpt>
      <trkpt lat="43.34226" lon="-1.63883">
        <ele>49</ele>
        <time>2026-02-28T10:39:43Z</time>
      </trkpt>
      <trkpt lat="43.34219" lon="-1.63911">
        <ele>48</ele>
        <time>2026-02-28T10:39:47Z</time>
      </trkpt>
      <trkpt lat="43.34205" lon="-1.63948">
        <ele>48</ele>
        <time>2026-02-28T10:39:52Z</time>
      </trkpt>
      <trkpt lat="43.34187" lon="-1.63993">
        <ele>48</ele>
        <time>2026-02-28T10:39:59Z</time>
      </trkpt>
      <trkpt lat="43.34177" lon="-1.64013">
        <ele>47</ele>
        <time>2026-02-28T10:40:02Z</time>
      </trkpt>
      <trkpt lat="43.34156" lon="-1.6404">
        <ele>45</ele>
        <time>2026-02-28T10:40:07Z</time>
      </trkpt>
      <trkpt lat="43.34139" lon="-1.64055">
        <ele>43</ele>
        <time>2026-02-28T10:40:11Z</time>
      </trkpt>
      <trkpt lat="43.34096" lon="-1.64075">
        <ele>39</ele>
        <time>2026-02-28T10:40:19Z</time>
      </trkpt>
      <trkpt lat="43.34062" lon="-1.64097">
        <ele>37</ele>
        <time>2026-02-28T10:40:26Z</time>
      </trkpt>
      <trkpt lat="43.34039" lon="-1.64126">
        <ele>36</ele>
        <time>2026-02-28T10:40:31Z</time>
      </trkpt>
      <trkpt lat="43.3403" lon="-1.64148">
        <ele>35</ele>
        <time>2026-02-28T10:40:34Z</time>
      </trkpt>
      <trkpt lat="43.34024" lon="-1.64173">
        <ele>35</ele>
        <time>2026-02-28T10:40:38Z</time>
      </trkpt>
      <trkpt lat="43.34022" lon="-1.64205">
        <ele>35</ele>
        <time>2026-02-28T10:40:42Z</time>
      </trkpt>
      <trkpt lat="43.34024" lon="-1.64261">
        <ele>35</ele>
        <time>2026-02-28T10:40:49Z</time>
      </trkpt>
      <trkpt lat="43.34023" lon="-1.64283">
        <ele>35</ele>
        <time>2026-02-28T10:40:52Z</time>
      </trkpt>
      <trkpt lat="43.34019" lon="-1.64309">
        <ele>35</ele>
        <time>2026-02-28T10:40:56Z</time>
      </trkpt>
      <trkpt lat="43.33986" lon="-1.64473">
        <ele>37</ele>
        <time>2026-02-28T10:41:18Z</time>
      </trkpt>
      <trkpt lat="43.33776" lon="-1.65454">
        <ele>65</ele>
        <time>2026-02-28T10:43:30Z</time>
      </trkpt>
      <trkpt lat="43.3373" lon="-1.65677">
        <ele>64</ele>
        <time>2026-02-28T10:44:00Z</time>
      </trkpt>
      <trkpt lat="43.33716" lon="-1.65754">
        <ele>66</ele>
        <time>2026-02-28T10:44:10Z</time>
      </trkpt>
      <trkpt lat="43.33695" lon="-1.6592">
        <ele>68</ele>
        <time>2026-02-28T10:44:32Z</time>
      </trkpt>
      <trkpt lat="43.33677" lon="-1.66023">
        <ele>69</ele>
        <time>2026-02-28T10:44:46Z</time>
      </trkpt>
      <trkpt lat="43.3365" lon="-1.66164">
        <ele>65</ele>
        <time>2026-02-28T10:45:05Z</time>
      </trkpt>
      <trkpt lat="43.33645" lon="-1.66182">
        <ele>65</ele>
        <time>2026-02-28T10:45:07Z</time>
      </trkpt>
      <trkpt lat="43.33622" lon="-1.6624">
        <ele>67</ele>
        <time>2026-02-28T10:45:16Z</time>
      </trkpt>
      <trkpt lat="43.33615" lon="-1.66263">
        <ele>67</ele>
        <time>2026-02-28T10:45:19Z</time>
      </trkpt>
      <trkpt lat="43.33607" lon="-1.66344">
        <ele>65</ele>
        <time>2026-02-28T10:45:29Z</time>
      </trkpt>
      <trkpt lat="43.33608" lon="-1.66377">
        <ele>64</ele>
        <time>2026-02-28T10:45:34Z</time>
      </trkpt>
      <trkpt lat="43.33615" lon="-1.66412">
        <ele>62</ele>
        <time>2026-02-28T10:45:38Z</time>
      </trkpt>
      <trkpt lat="43.33625" lon="-1.66444">
        <ele>59</ele>
        <time>2026-02-28T10:45:43Z</time>
      </trkpt>
      <trkpt lat="43.33661" lon="-1.6654">
        <ele>53</ele>
        <time>2026-02-28T10:45:57Z</time>
      </trkpt>
      <trkpt lat="43.33666" lon="-1.66563">
        <ele>52</ele>
        <time>2026-02-28T10:46:00Z</time>
      </trkpt>
      <trkpt lat="43.33671" lon="-1.66597">
        <ele>50</ele>
        <time>2026-02-28T10:46:04Z</time>
      </trkpt>
      <trkpt lat="43.33672" lon="-1.66622">
        <ele>50</ele>
        <time>2026-02-28T10:46:08Z</time>
      </trkpt>
      <trkpt lat="43.33666" lon="-1.66662">
        <ele>48</ele>
        <time>2026-02-28T10:46:13Z</time>
      </trkpt>
      <trkpt lat="43.33655" lon="-1.66718">
        <ele>47</ele>
        <time>2026-02-28T10:46:21Z</time>
      </trkpt>
      <trkpt lat="43.33641" lon="-1.66759">
        <ele>45</ele>
        <time>2026-02-28T10:46:26Z</time>
      </trkpt>
      <trkpt lat="43.33633" lon="-1.66772">
        <ele>45</ele>
        <time>2026-02-28T10:46:29Z</time>
      </trkpt>
      <trkpt lat="43.33629" lon="-1.66778">
        <ele>45</ele>
        <time>2026-02-28T10:46:30Z</time>
      </trkpt>
      <trkpt lat="43.33622" lon="-1.66788">
        <ele>45</ele>
        <time>2026-02-28T10:46:31Z</time>
      </trkpt>
      <trkpt lat="43.33613" lon="-1.66794">
        <ele>45</ele>
        <time>2026-02-28T10:46:33Z</time>
      </trkpt>
      <trkpt lat="43.3361" lon="-1.66799">
        <ele>45</ele>
        <time>2026-02-28T10:46:34Z</time>
      </trkpt>
      <trkpt lat="43.33606" lon="-1.66802">
        <ele>45</ele>
        <time>2026-02-28T10:46:35Z</time>
      </trkpt>
      <trkpt lat="43.33599" lon="-1.66799">
        <ele>45</ele>
        <time>2026-02-28T10:46:36Z</time>
      </trkpt>
      <trkpt lat="43.3358" lon="-1.668">
        <ele>45</ele>
        <time>2026-02-28T10:46:40Z</time>
      </trkpt>
      <trkpt lat="43.33551" lon="-1.66806">
        <ele>45</ele>
        <time>2026-02-28T10:46:45Z</time>
      </trkpt>
      <trkpt lat="43.3354" lon="-1.66811">
        <ele>45</ele>
        <time>2026-02-28T10:46:47Z</time>
      </trkpt>
      <trkpt lat="43.33517" lon="-1.66837">
        <ele>46</ele>
        <time>2026-02-28T10:46:52Z</time>
      </trkpt>
      <trkpt lat="43.33472" lon="-1.669">
        <ele>51</ele>
        <time>2026-02-28T10:47:04Z</time>
      </trkpt>
      <trkpt lat="43.33461" lon="-1.66923">
        <ele>52</ele>
        <time>2026-02-28T10:47:07Z</time>
      </trkpt>
      <trkpt lat="43.33452" lon="-1.6695">
        <ele>53</ele>
        <time>2026-02-28T10:47:11Z</time>
      </trkpt>
      <trkpt lat="43.33449" lon="-1.66967">
        <ele>52</ele>
        <time>2026-02-28T10:47:13Z</time>
      </trkpt>
      <trkpt lat="43.33438" lon="-1.6714">
        <ele>51</ele>
        <time>2026-02-28T10:47:36Z</time>
      </trkpt>
      <trkpt lat="43.33438" lon="-1.67201">
        <ele>52</ele>
        <time>2026-02-28T10:47:44Z</time>
      </trkpt>
      <trkpt lat="43.33465" lon="-1.67337">
        <ele>55</ele>
        <time>2026-02-28T10:48:02Z</time>
      </trkpt>
      <trkpt lat="43.3347" lon="-1.67366">
        <ele>56</ele>
        <time>2026-02-28T10:48:06Z</time>
      </trkpt>
      <trkpt lat="43.33472" lon="-1.67396">
        <ele>57</ele>
        <time>2026-02-28T10:48:10Z</time>
      </trkpt>
      <trkpt lat="43.33471" lon="-1.67453">
        <ele>58</ele>
        <time>2026-02-28T10:48:17Z</time>
      </trkpt>
      <trkpt lat="43.33465" lon="-1.67543">
        <ele>60</ele>
        <time>2026-02-28T10:48:29Z</time>
      </trkpt>
      <trkpt lat="43.33458" lon="-1.67596">
        <ele>62</ele>
        <time>2026-02-28T10:48:36Z</time>
      </trkpt>
      <trkpt lat="43.33431" lon="-1.67754">
        <ele>66</ele>
        <time>2026-02-28T10:48:57Z</time>
      </trkpt>
      <trkpt lat="43.33429" lon="-1.67776">
        <ele>66</ele>
        <time>2026-02-28T10:49:00Z</time>
      </trkpt>
      <trkpt lat="43.33424" lon="-1.67866">
        <ele>69</ele>
        <time>2026-02-28T10:49:11Z</time>
      </trkpt>
      <trkpt lat="43.33417" lon="-1.68082">
        <ele>75</ele>
        <time>2026-02-28T10:49:39Z</time>
      </trkpt>
      <trkpt lat="43.33402" lon="-1.68459">
        <ele>86</ele>
        <time>2026-02-28T10:50:28Z</time>
      </trkpt>
      <trkpt lat="43.33392" lon="-1.68671">
        <ele>95</ele>
        <time>2026-02-28T10:50:56Z</time>
      </trkpt>
      <trkpt lat="43.33391" lon="-1.68727">
        <ele>97</ele>
        <time>2026-02-28T10:51:03Z</time>
      </trkpt>
      <trkpt lat="43.33394" lon="-1.68738">
        <ele>98</ele>
        <time>2026-02-28T10:51:04Z</time>
      </trkpt>
      <trkpt lat="43.33377" lon="-1.6874">
        <ele>98</ele>
        <time>2026-02-28T10:51:07Z</time>
      </trkpt>
      <trkpt lat="43.33297" lon="-1.68742">
        <ele>100</ele>
        <time>2026-02-28T10:51:22Z</time>
      </trkpt>
      <trkpt lat="43.33262" lon="-1.68737">
        <ele>103</ele>
        <time>2026-02-28T10:51:28Z</time>
      </trkpt>
      <trkpt lat="43.33222" lon="-1.68721">
        <ele>107</ele>
        <time>2026-02-28T10:51:35Z</time>
      </trkpt>
      <trkpt lat="43.33201" lon="-1.68704">
        <ele>109</ele>
        <time>2026-02-28T10:51:40Z</time>
      </trkpt>
      <trkpt lat="43.33183" lon="-1.68678">
        <ele>110</ele>
        <time>2026-02-28T10:51:44Z</time>
      </trkpt>
      <trkpt lat="43.33177" lon="-1.68656">
        <ele>111</ele>
        <time>2026-02-28T10:51:47Z</time>
      </trkpt>
      <trkpt lat="43.33178" lon="-1.68622">
        <ele>109</ele>
        <time>2026-02-28T10:51:52Z</time>
      </trkpt>
      <trkpt lat="43.33176" lon="-1.68602">
        <ele>109</ele>
        <time>2026-02-28T10:51:54Z</time>
      </trkpt>
      <trkpt lat="43.33166" lon="-1.68591">
        <ele>110</ele>
        <time>2026-02-28T10:51:57Z</time>
      </trkpt>
      <trkpt lat="43.33145" lon="-1.68586">
        <ele>115</ele>
        <time>2026-02-28T10:52:00Z</time>
      </trkpt>
      <trkpt lat="43.33129" lon="-1.68575">
        <ele>118</ele>
        <time>2026-02-28T10:52:04Z</time>
      </trkpt>
      <trkpt lat="43.33113" lon="-1.68554">
        <ele>120</ele>
        <time>2026-02-28T10:52:07Z</time>
      </trkpt>
      <trkpt lat="43.33096" lon="-1.6851">
        <ele>122</ele>
        <time>2026-02-28T10:52:14Z</time>
      </trkpt>
      <trkpt lat="43.33073" lon="-1.68461">
        <ele>122</ele>
        <time>2026-02-28T10:52:21Z</time>
      </trkpt>
      <trkpt lat="43.33046" lon="-1.68427">
        <ele>125</ele>
        <time>2026-02-28T10:52:28Z</time>
      </trkpt>
      <trkpt lat="43.33028" lon="-1.68417">
        <ele>128</ele>
        <time>2026-02-28T10:52:31Z</time>
      </trkpt>
      <trkpt lat="43.33012" lon="-1.68418">
        <ele>131</ele>
        <time>2026-02-28T10:52:34Z</time>
      </trkpt>
      <trkpt lat="43.32988" lon="-1.68424">
        <ele>138</ele>
        <time>2026-02-28T10:52:39Z</time>
      </trkpt>
      <trkpt lat="43.3298" lon="-1.68424">
        <ele>140</ele>
        <time>2026-02-28T10:52:40Z</time>
      </trkpt>
      <trkpt lat="43.32976" lon="-1.6842">
        <ele>141</ele>
        <time>2026-02-28T10:52:41Z</time>
      </trkpt>
      <trkpt lat="43.32972" lon="-1.68412">
        <ele>141</ele>
        <time>2026-02-28T10:52:42Z</time>
      </trkpt>
      <trkpt lat="43.32971" lon="-1.68401">
        <ele>141</ele>
        <time>2026-02-28T10:52:44Z</time>
      </trkpt>
      <trkpt lat="43.32981" lon="-1.68376">
        <ele>135</ele>
        <time>2026-02-28T10:52:47Z</time>
      </trkpt>
      <trkpt lat="43.32983" lon="-1.68362">
        <ele>133</ele>
        <time>2026-02-28T10:52:49Z</time>
      </trkpt>
      <trkpt lat="43.32981" lon="-1.68344">
        <ele>132</ele>
        <time>2026-02-28T10:52:52Z</time>
      </trkpt>
      <trkpt lat="43.32973" lon="-1.68322">
        <ele>133</ele>
        <time>2026-02-28T10:52:55Z</time>
      </trkpt>
      <trkpt lat="43.32968" lon="-1.68314">
        <ele>134</ele>
        <time>2026-02-28T10:52:56Z</time>
      </trkpt>
      <trkpt lat="43.32959" lon="-1.68306">
        <ele>136</ele>
        <time>2026-02-28T10:52:58Z</time>
      </trkpt>
      <trkpt lat="43.32948" lon="-1.68306">
        <ele>140</ele>
        <time>2026-02-28T10:53:00Z</time>
      </trkpt>
      <trkpt lat="43.32932" lon="-1.68309">
        <ele>146</ele>
        <time>2026-02-28T10:53:03Z</time>
      </trkpt>
      <trkpt lat="43.32926" lon="-1.68306">
        <ele>148</ele>
        <time>2026-02-28T10:53:04Z</time>
      </trkpt>
      <trkpt lat="43.32921" lon="-1.68296">
        <ele>149</ele>
        <time>2026-02-28T10:53:06Z</time>
      </trkpt>
      <trkpt lat="43.3292" lon="-1.68288">
        <ele>149</ele>
        <time>2026-02-28T10:53:07Z</time>
      </trkpt>
      <trkpt lat="43.3292" lon="-1.68239">
        <ele>144</ele>
        <time>2026-02-28T10:53:13Z</time>
      </trkpt>
      <trkpt lat="43.32916" lon="-1.68216">
        <ele>143</ele>
        <time>2026-02-28T10:53:16Z</time>
      </trkpt>
      <trkpt lat="43.32912" lon="-1.68206">
        <ele>143</ele>
        <time>2026-02-28T10:53:17Z</time>
      </trkpt>
      <trkpt lat="43.32901" lon="-1.68189">
        <ele>144</ele>
        <time>2026-02-28T10:53:20Z</time>
      </trkpt>
      <trkpt lat="43.32866" lon="-1.68149">
        <ele>145</ele>
        <time>2026-02-28T10:53:29Z</time>
      </trkpt>
      <trkpt lat="43.32859" lon="-1.68147">
        <ele>146</ele>
        <time>2026-02-28T10:53:30Z</time>
      </trkpt>
      <trkpt lat="43.32856" lon="-1.68149">
        <ele>147</ele>
        <time>2026-02-28T10:53:30Z</time>
      </trkpt>
      <trkpt lat="43.32853" lon="-1.68156">
        <ele>150</ele>
        <time>2026-02-28T10:53:31Z</time>
      </trkpt>
      <trkpt lat="43.32854" lon="-1.68164">
        <ele>152</ele>
        <time>2026-02-28T10:53:32Z</time>
      </trkpt>
      <trkpt lat="43.32871" lon="-1.68181">
        <ele>151</ele>
        <time>2026-02-28T10:53:36Z</time>
      </trkpt>
      <trkpt lat="43.3288" lon="-1.68197">
        <ele>151</ele>
        <time>2026-02-28T10:53:39Z</time>
      </trkpt>
      <trkpt lat="43.32888" lon="-1.68221">
        <ele>153</ele>
        <time>2026-02-28T10:53:42Z</time>
      </trkpt>
      <trkpt lat="43.32893" lon="-1.68252">
        <ele>156</ele>
        <time>2026-02-28T10:53:46Z</time>
      </trkpt>
      <trkpt lat="43.32892" lon="-1.68262">
        <ele>157</ele>
        <time>2026-02-28T10:53:48Z</time>
      </trkpt>
      <trkpt lat="43.32884" lon="-1.6831">
        <ele>164</ele>
        <time>2026-02-28T10:53:54Z</time>
      </trkpt>
      <trkpt lat="43.32886" lon="-1.68322">
        <ele>164</ele>
        <time>2026-02-28T10:53:56Z</time>
      </trkpt>
      <trkpt lat="43.32893" lon="-1.68342">
        <ele>163</ele>
        <time>2026-02-28T10:53:59Z</time>
      </trkpt>
      <trkpt lat="43.32897" lon="-1.68362">
        <ele>162</ele>
        <time>2026-02-28T10:54:01Z</time>
      </trkpt>
      <trkpt lat="43.32894" lon="-1.68375">
        <ele>163</ele>
        <time>2026-02-28T10:54:03Z</time>
      </trkpt>
      <trkpt lat="43.32879" lon="-1.68408">
        <ele>168</ele>
        <time>2026-02-28T10:54:08Z</time>
      </trkpt>
      <trkpt lat="43.32874" lon="-1.68421">
        <ele>170</ele>
        <time>2026-02-28T10:54:10Z</time>
      </trkpt>
      <trkpt lat="43.32873" lon="-1.68429">
        <ele>171</ele>
        <time>2026-02-28T10:54:11Z</time>
      </trkpt>
      <trkpt lat="43.32874" lon="-1.68447">
        <ele>173</ele>
        <time>2026-02-28T10:54:13Z</time>
      </trkpt>
      <trkpt lat="43.3288" lon="-1.68468">
        <ele>173</ele>
        <time>2026-02-28T10:54:16Z</time>
      </trkpt>
      <trkpt lat="43.32891" lon="-1.68491">
        <ele>172</ele>
        <time>2026-02-28T10:54:20Z</time>
      </trkpt>
      <trkpt lat="43.32896" lon="-1.68499">
        <ele>172</ele>
        <time>2026-02-28T10:54:21Z</time>
      </trkpt>
      <trkpt lat="43.32915" lon="-1.6852">
        <ele>170</ele>
        <time>2026-02-28T10:54:25Z</time>
      </trkpt>
      <trkpt lat="43.32922" lon="-1.68535">
        <ele>170</ele>
        <time>2026-02-28T10:54:28Z</time>
      </trkpt>
      <trkpt lat="43.32946" lon="-1.68619">
        <ele>167</ele>
        <time>2026-02-28T10:54:39Z</time>
      </trkpt>
      <trkpt lat="43.32946" lon="-1.68628">
        <ele>166</ele>
        <time>2026-02-28T10:54:41Z</time>
      </trkpt>
      <trkpt lat="43.32944" lon="-1.68645">
        <ele>166</ele>
        <time>2026-02-28T10:54:43Z</time>
      </trkpt>
      <trkpt lat="43.32935" lon="-1.68659">
        <ele>168</ele>
        <time>2026-02-28T10:54:45Z</time>
      </trkpt>
      <trkpt lat="43.32927" lon="-1.68667">
        <ele>170</ele>
        <time>2026-02-28T10:54:47Z</time>
      </trkpt>
      <trkpt lat="43.32895" lon="-1.6869">
        <ele>173</ele>
        <time>2026-02-28T10:54:53Z</time>
      </trkpt>
      <trkpt lat="43.32869" lon="-1.68707">
        <ele>175</ele>
        <time>2026-02-28T10:54:59Z</time>
      </trkpt>
      <trkpt lat="43.32844" lon="-1.68719">
        <ele>178</ele>
        <time>2026-02-28T10:55:03Z</time>
      </trkpt>
      <trkpt lat="43.32821" lon="-1.68723">
        <ele>180</ele>
        <time>2026-02-28T10:55:07Z</time>
      </trkpt>
      <trkpt lat="43.32788" lon="-1.68723">
        <ele>183</ele>
        <time>2026-02-28T10:55:13Z</time>
      </trkpt>
      <trkpt lat="43.3276" lon="-1.68719">
        <ele>186</ele>
        <time>2026-02-28T10:55:18Z</time>
      </trkpt>
      <trkpt lat="43.32743" lon="-1.68712">
        <ele>190</ele>
        <time>2026-02-28T10:55:21Z</time>
      </trkpt>
      <trkpt lat="43.32686" lon="-1.68683">
        <ele>201</ele>
        <time>2026-02-28T10:55:32Z</time>
      </trkpt>
      <trkpt lat="43.32646" lon="-1.68676">
        <ele>205</ele>
        <time>2026-02-28T10:55:39Z</time>
      </trkpt>
      <trkpt lat="43.32613" lon="-1.68665">
        <ele>210</ele>
        <time>2026-02-28T10:55:45Z</time>
      </trkpt>
      <trkpt lat="43.32609" lon="-1.68665">
        <ele>210</ele>
        <time>2026-02-28T10:55:46Z</time>
      </trkpt>
      <trkpt lat="43.32585" lon="-1.68679">
        <ele>208</ele>
        <time>2026-02-28T10:55:51Z</time>
      </trkpt>
      <trkpt lat="43.32559" lon="-1.68684">
        <ele>207</ele>
        <time>2026-02-28T10:55:55Z</time>
      </trkpt>
      <trkpt lat="43.32547" lon="-1.68689">
        <ele>206</ele>
        <time>2026-02-28T10:55:58Z</time>
      </trkpt>
      <trkpt lat="43.32534" lon="-1.68691">
        <ele>205</ele>
        <time>2026-02-28T10:56:00Z</time>
      </trkpt>
      <trkpt lat="43.32524" lon="-1.68687">
        <ele>206</ele>
        <time>2026-02-28T10:56:02Z</time>
      </trkpt>
      <trkpt lat="43.32482" lon="-1.68648">
        <ele>216</ele>
        <time>2026-02-28T10:56:11Z</time>
      </trkpt>
      <trkpt lat="43.32469" lon="-1.68639">
        <ele>219</ele>
        <time>2026-02-28T10:56:14Z</time>
      </trkpt>
      <trkpt lat="43.32457" lon="-1.68633">
        <ele>222</ele>
        <time>2026-02-28T10:56:16Z</time>
      </trkpt>
      <trkpt lat="43.32437" lon="-1.68629">
        <ele>224</ele>
        <time>2026-02-28T10:56:19Z</time>
      </trkpt>
      <trkpt lat="43.32418" lon="-1.68631">
        <ele>223</ele>
        <time>2026-02-28T10:56:23Z</time>
      </trkpt>
      <trkpt lat="43.32377" lon="-1.68661">
        <ele>216</ele>
        <time>2026-02-28T10:56:31Z</time>
      </trkpt>
      <trkpt lat="43.32357" lon="-1.68667">
        <ele>216</ele>
        <time>2026-02-28T10:56:35Z</time>
      </trkpt>
      <trkpt lat="43.32348" lon="-1.68664">
        <ele>218</ele>
        <time>2026-02-28T10:56:36Z</time>
      </trkpt>
      <trkpt lat="43.3233" lon="-1.68645">
        <ele>224</ele>
        <time>2026-02-28T10:56:40Z</time>
      </trkpt>
      <trkpt lat="43.32324" lon="-1.68641">
        <ele>226</ele>
        <time>2026-02-28T10:56:42Z</time>
      </trkpt>
      <trkpt lat="43.32292" lon="-1.68632">
        <ele>229</ele>
        <time>2026-02-28T10:56:47Z</time>
      </trkpt>
      <trkpt lat="43.32233" lon="-1.68598">
        <ele>235</ele>
        <time>2026-02-28T10:56:59Z</time>
      </trkpt>
      <trkpt lat="43.32227" lon="-1.68596">
        <ele>235</ele>
        <time>2026-02-28T10:57:00Z</time>
      </trkpt>
      <trkpt lat="43.32196" lon="-1.68592">
        <ele>233</ele>
        <time>2026-02-28T10:57:05Z</time>
      </trkpt>
      <trkpt lat="43.32162" lon="-1.68593">
        <ele>231</ele>
        <time>2026-02-28T10:57:11Z</time>
      </trkpt>
      <trkpt lat="43.32149" lon="-1.68587">
        <ele>231</ele>
        <time>2026-02-28T10:57:14Z</time>
      </trkpt>
      <trkpt lat="43.32143" lon="-1.68582">
        <ele>231</ele>
        <time>2026-02-28T10:57:15Z</time>
      </trkpt>
      <trkpt lat="43.32136" lon="-1.68568">
        <ele>234</ele>
        <time>2026-02-28T10:57:17Z</time>
      </trkpt>
      <trkpt lat="43.32133" lon="-1.68552">
        <ele>237</ele>
        <time>2026-02-28T10:57:19Z</time>
      </trkpt>
      <trkpt lat="43.32131" lon="-1.68519">
        <ele>244</ele>
        <time>2026-02-28T10:57:24Z</time>
      </trkpt>
      <trkpt lat="43.32127" lon="-1.68505">
        <ele>247</ele>
        <time>2026-02-28T10:57:26Z</time>
      </trkpt>
      <trkpt lat="43.32112" lon="-1.68487">
        <ele>247</ele>
        <time>2026-02-28T10:57:29Z</time>
      </trkpt>
      <trkpt lat="43.32109" lon="-1.68481">
        <ele>247</ele>
        <time>2026-02-28T10:57:30Z</time>
      </trkpt>
      <trkpt lat="43.32094" lon="-1.68437">
        <ele>248</ele>
        <time>2026-02-28T10:57:36Z</time>
      </trkpt>
      <trkpt lat="43.32091" lon="-1.68432">
        <ele>248</ele>
        <time>2026-02-28T10:57:37Z</time>
      </trkpt>
      <trkpt lat="43.32084" lon="-1.68427">
        <ele>247</ele>
        <time>2026-02-28T10:57:39Z</time>
      </trkpt>
      <trkpt lat="43.32076" lon="-1.68429">
        <ele>248</ele>
        <time>2026-02-28T10:57:40Z</time>
      </trkpt>
      <trkpt lat="43.32071" lon="-1.68432">
        <ele>249</ele>
        <time>2026-02-28T10:57:41Z</time>
      </trkpt>
      <trkpt lat="43.32061" lon="-1.68451">
        <ele>248</ele>
        <time>2026-02-28T10:57:44Z</time>
      </trkpt>
      <trkpt lat="43.32041" lon="-1.68499">
        <ele>247</ele>
        <time>2026-02-28T10:57:51Z</time>
      </trkpt>
      <trkpt lat="43.32036" lon="-1.68507">
        <ele>246</ele>
        <time>2026-02-28T10:57:53Z</time>
      </trkpt>
      <trkpt lat="43.3203" lon="-1.68514">
        <ele>246</ele>
        <time>2026-02-28T10:57:54Z</time>
      </trkpt>
      <trkpt lat="43.32023" lon="-1.68519">
        <ele>246</ele>
        <time>2026-02-28T10:57:55Z</time>
      </trkpt>
      <trkpt lat="43.32007" lon="-1.68524">
        <ele>246</ele>
        <time>2026-02-28T10:57:58Z</time>
      </trkpt>
      <trkpt lat="43.32" lon="-1.68524">
        <ele>247</ele>
        <time>2026-02-28T10:58:00Z</time>
      </trkpt>
      <trkpt lat="43.31986" lon="-1.68518">
        <ele>249</ele>
        <time>2026-02-28T10:58:02Z</time>
      </trkpt>
      <trkpt lat="43.31964" lon="-1.68515">
        <ele>251</ele>
        <time>2026-02-28T10:58:06Z</time>
      </trkpt>
      <trkpt lat="43.31924" lon="-1.685">
        <ele>257</ele>
        <time>2026-02-28T10:58:14Z</time>
      </trkpt>
      <trkpt lat="43.31902" lon="-1.68502">
        <ele>258</ele>
        <time>2026-02-28T10:58:18Z</time>
      </trkpt>
      <trkpt lat="43.3188" lon="-1.68496">
        <ele>261</ele>
        <time>2026-02-28T10:58:21Z</time>
      </trkpt>
      <trkpt lat="43.31844" lon="-1.68502">
        <ele>262</ele>
        <time>2026-02-28T10:58:28Z</time>
      </trkpt>
      <trkpt lat="43.31817" lon="-1.68494">
        <ele>266</ele>
        <time>2026-02-28T10:58:33Z</time>
      </trkpt>
      <trkpt lat="43.31791" lon="-1.68502">
        <ele>267</ele>
        <time>2026-02-28T10:58:38Z</time>
      </trkpt>
      <trkpt lat="43.31769" lon="-1.68505">
        <ele>268</ele>
        <time>2026-02-28T10:58:42Z</time>
      </trkpt>
      <trkpt lat="43.31758" lon="-1.68505">
        <ele>270</ele>
        <time>2026-02-28T10:58:43Z</time>
      </trkpt>
      <trkpt lat="43.31738" lon="-1.68499">
        <ele>274</ele>
        <time>2026-02-28T10:58:47Z</time>
      </trkpt>
      <trkpt lat="43.31726" lon="-1.68499">
        <ele>275</ele>
        <time>2026-02-28T10:58:49Z</time>
      </trkpt>
      <trkpt lat="43.31721" lon="-1.68501">
        <ele>275</ele>
        <time>2026-02-28T10:58:50Z</time>
      </trkpt>
      <trkpt lat="43.31708" lon="-1.68512">
        <ele>273</ele>
        <time>2026-02-28T10:58:53Z</time>
      </trkpt>
      <trkpt lat="43.31693" lon="-1.6852">
        <ele>272</ele>
        <time>2026-02-28T10:58:56Z</time>
      </trkpt>
      <trkpt lat="43.31675" lon="-1.68524">
        <ele>273</ele>
        <time>2026-02-28T10:58:59Z</time>
      </trkpt>
      <trkpt lat="43.31657" lon="-1.68524">
        <ele>275</ele>
        <time>2026-02-28T10:59:02Z</time>
      </trkpt>
      <trkpt lat="43.3163" lon="-1.68519">
        <ele>278</ele>
        <time>2026-02-28T10:59:07Z</time>
      </trkpt>
      <trkpt lat="43.31582" lon="-1.68499">
        <ele>284</ele>
        <time>2026-02-28T10:59:16Z</time>
      </trkpt>
      <trkpt lat="43.31549" lon="-1.68514">
        <ele>284</ele>
        <time>2026-02-28T10:59:22Z</time>
      </trkpt>
      <trkpt lat="43.31519" lon="-1.68509">
        <ele>287</ele>
        <time>2026-02-28T10:59:28Z</time>
      </trkpt>
      <trkpt lat="43.31497" lon="-1.68514">
        <ele>287</ele>
        <time>2026-02-28T10:59:32Z</time>
      </trkpt>
      <trkpt lat="43.31485" lon="-1.68512">
        <ele>289</ele>
        <time>2026-02-28T10:59:34Z</time>
      </trkpt>
      <trkpt lat="43.31465" lon="-1.68495">
        <ele>294</ele>
        <time>2026-02-28T10:59:38Z</time>
      </trkpt>
      <trkpt lat="43.31459" lon="-1.68492">
        <ele>296</ele>
        <time>2026-02-28T10:59:39Z</time>
      </trkpt>
      <trkpt lat="43.31408" lon="-1.68494">
        <ele>299</ele>
        <time>2026-02-28T10:59:48Z</time>
      </trkpt>
      <trkpt lat="43.31374" lon="-1.68498">
        <ele>298</ele>
        <time>2026-02-28T10:59:54Z</time>
      </trkpt>
      <trkpt lat="43.31362" lon="-1.68495">
        <ele>298</ele>
        <time>2026-02-28T10:59:56Z</time>
      </trkpt>
      <trkpt lat="43.31347" lon="-1.68486">
        <ele>301</ele>
        <time>2026-02-28T10:59:59Z</time>
      </trkpt>
      <trkpt lat="43.31333" lon="-1.68482">
        <ele>302</ele>
        <time>2026-02-28T11:00:02Z</time>
      </trkpt>
      <trkpt lat="43.31318" lon="-1.68483">
        <ele>303</ele>
        <time>2026-02-28T11:00:04Z</time>
      </trkpt>
      <trkpt lat="43.31295" lon="-1.68497">
        <ele>301</ele>
        <time>2026-02-28T11:00:09Z</time>
      </trkpt>
      <trkpt lat="43.31288" lon="-1.68499">
        <ele>301</ele>
        <time>2026-02-28T11:00:10Z</time>
      </trkpt>
      <trkpt lat="43.31276" lon="-1.68498">
        <ele>302</ele>
        <time>2026-02-28T11:00:12Z</time>
      </trkpt>
      <trkpt lat="43.31213" lon="-1.68482">
        <ele>309</ele>
        <time>2026-02-28T11:00:24Z</time>
      </trkpt>
      <trkpt lat="43.31185" lon="-1.68492">
        <ele>309</ele>
        <time>2026-02-28T11:00:29Z</time>
      </trkpt>
      <trkpt lat="43.31148" lon="-1.68488">
        <ele>310</ele>
        <time>2026-02-28T11:00:35Z</time>
      </trkpt>
      <trkpt lat="43.31034" lon="-1.68456">
        <ele>316</ele>
        <time>2026-02-28T11:00:56Z</time>
      </trkpt>
      <trkpt lat="43.3098" lon="-1.68437">
        <ele>317</ele>
        <time>2026-02-28T11:01:06Z</time>
      </trkpt>
      <trkpt lat="43.30972" lon="-1.68437">
        <ele>317</ele>
        <time>2026-02-28T11:01:08Z</time>
      </trkpt>
      <trkpt lat="43.3097" lon="-1.68444">
        <ele>316</ele>
        <time>2026-02-28T11:01:09Z</time>
      </trkpt>
      <trkpt lat="43.30965" lon="-1.68444">
        <ele>316</ele>
        <time>2026-02-28T11:01:09Z</time>
      </trkpt>
      <trkpt lat="43.30962" lon="-1.6844">
        <ele>316</ele>
        <time>2026-02-28T11:01:10Z</time>
      </trkpt>
      <trkpt lat="43.30963" lon="-1.68433">
        <ele>316</ele>
        <time>2026-02-28T11:01:11Z</time>
      </trkpt>
      <trkpt lat="43.30968" lon="-1.68431">
        <ele>317</ele>
        <time>2026-02-28T11:01:12Z</time>
      </trkpt>
      <trkpt lat="43.3097" lon="-1.68432">
        <ele>317</ele>
        <time>2026-02-28T11:01:12Z</time>
      </trkpt>
      <trkpt lat="43.30972" lon="-1.68437">
        <ele>317</ele>
        <time>2026-02-28T11:01:13Z</time>
      </trkpt>
      <trkpt lat="43.3098" lon="-1.68437">
        <ele>317</ele>
        <time>2026-02-28T11:01:15Z</time>
      </trkpt>
      <trkpt lat="43.31034" lon="-1.68456">
        <ele>316</ele>
        <time>2026-02-28T11:01:24Z</time>
      </trkpt>
      <trkpt lat="43.31148" lon="-1.68488">
        <ele>310</ele>
        <time>2026-02-28T11:01:45Z</time>
      </trkpt>
      <trkpt lat="43.31185" lon="-1.68492">
        <ele>309</ele>
        <time>2026-02-28T11:01:52Z</time>
      </trkpt>
      <trkpt lat="43.31213" lon="-1.68482">
        <ele>309</ele>
        <time>2026-02-28T11:01:57Z</time>
      </trkpt>
      <trkpt lat="43.31276" lon="-1.68498">
        <ele>302</ele>
        <time>2026-02-28T11:02:08Z</time>
      </trkpt>
      <trkpt lat="43.31288" lon="-1.68499">
        <ele>301</ele>
        <time>2026-02-28T11:02:10Z</time>
      </trkpt>
      <trkpt lat="43.31295" lon="-1.68497">
        <ele>301</ele>
        <time>2026-02-28T11:02:12Z</time>
      </trkpt>
      <trkpt lat="43.31318" lon="-1.68483">
        <ele>303</ele>
        <time>2026-02-28T11:02:16Z</time>
      </trkpt>
      <trkpt lat="43.31333" lon="-1.68482">
        <ele>302</ele>
        <time>2026-02-28T11:02:19Z</time>
      </trkpt>
      <trkpt lat="43.31347" lon="-1.68486">
        <ele>301</ele>
        <time>2026-02-28T11:02:21Z</time>
      </trkpt>
      <trkpt lat="43.31362" lon="-1.68495">
        <ele>298</ele>
        <time>2026-02-28T11:02:24Z</time>
      </trkpt>
      <trkpt lat="43.31374" lon="-1.68498">
        <ele>298</ele>
        <time>2026-02-28T11:02:26Z</time>
      </trkpt>
      <trkpt lat="43.31408" lon="-1.68494">
        <ele>299</ele>
        <time>2026-02-28T11:02:33Z</time>
      </trkpt>
      <trkpt lat="43.31459" lon="-1.68492">
        <ele>296</ele>
        <time>2026-02-28T11:02:42Z</time>
      </trkpt>
      <trkpt lat="43.31465" lon="-1.68495">
        <ele>294</ele>
        <time>2026-02-28T11:02:43Z</time>
      </trkpt>
      <trkpt lat="43.31485" lon="-1.68512">
        <ele>289</ele>
        <time>2026-02-28T11:02:47Z</time>
      </trkpt>
      <trkpt lat="43.31497" lon="-1.68514">
        <ele>287</ele>
        <time>2026-02-28T11:02:49Z</time>
      </trkpt>
      <trkpt lat="43.31519" lon="-1.68509">
        <ele>287</ele>
        <time>2026-02-28T11:02:53Z</time>
      </trkpt>
      <trkpt lat="43.31549" lon="-1.68514">
        <ele>284</ele>
        <time>2026-02-28T11:02:58Z</time>
      </trkpt>
      <trkpt lat="43.31582" lon="-1.68499">
        <ele>284</ele>
        <time>2026-02-28T11:03:05Z</time>
      </trkpt>
      <trkpt lat="43.3163" lon="-1.68519">
        <ele>278</ele>
        <time>2026-02-28T11:03:14Z</time>
      </trkpt>
      <trkpt lat="43.31657" lon="-1.68524">
        <ele>275</ele>
        <time>2026-02-28T11:03:18Z</time>
      </trkpt>
      <trkpt lat="43.31675" lon="-1.68524">
        <ele>273</ele>
        <time>2026-02-28T11:03:22Z</time>
      </trkpt>
      <trkpt lat="43.31693" lon="-1.6852">
        <ele>272</ele>
        <time>2026-02-28T11:03:25Z</time>
      </trkpt>
      <trkpt lat="43.31708" lon="-1.68512">
        <ele>273</ele>
        <time>2026-02-28T11:03:28Z</time>
      </trkpt>
      <trkpt lat="43.31721" lon="-1.68501">
        <ele>275</ele>
        <time>2026-02-28T11:03:30Z</time>
      </trkpt>
      <trkpt lat="43.31726" lon="-1.68499">
        <ele>275</ele>
        <time>2026-02-28T11:03:31Z</time>
      </trkpt>
      <trkpt lat="43.31738" lon="-1.68499">
        <ele>274</ele>
        <time>2026-02-28T11:03:33Z</time>
      </trkpt>
      <trkpt lat="43.31758" lon="-1.68505">
        <ele>270</ele>
        <time>2026-02-28T11:03:37Z</time>
      </trkpt>
      <trkpt lat="43.31769" lon="-1.68505">
        <ele>268</ele>
        <time>2026-02-28T11:03:39Z</time>
      </trkpt>
      <trkpt lat="43.31791" lon="-1.68502">
        <ele>267</ele>
        <time>2026-02-28T11:03:43Z</time>
      </trkpt>
      <trkpt lat="43.31817" lon="-1.68494">
        <ele>266</ele>
        <time>2026-02-28T11:03:48Z</time>
      </trkpt>
      <trkpt lat="43.31844" lon="-1.68502">
        <ele>262</ele>
        <time>2026-02-28T11:03:53Z</time>
      </trkpt>
      <trkpt lat="43.3188" lon="-1.68496">
        <ele>261</ele>
        <time>2026-02-28T11:03:59Z</time>
      </trkpt>
      <trkpt lat="43.31902" lon="-1.68502">
        <ele>258</ele>
        <time>2026-02-28T11:04:03Z</time>
      </trkpt>
      <trkpt lat="43.31924" lon="-1.685">
        <ele>257</ele>
        <time>2026-02-28T11:04:07Z</time>
      </trkpt>
      <trkpt lat="43.31964" lon="-1.68515">
        <ele>251</ele>
        <time>2026-02-28T11:04:14Z</time>
      </trkpt>
      <trkpt lat="43.31986" lon="-1.68518">
        <ele>249</ele>
        <time>2026-02-28T11:04:18Z</time>
      </trkpt>
      <trkpt lat="43.32" lon="-1.68524">
        <ele>247</ele>
        <time>2026-02-28T11:04:21Z</time>
      </trkpt>
      <trkpt lat="43.32007" lon="-1.68524">
        <ele>246</ele>
        <time>2026-02-28T11:04:22Z</time>
      </trkpt>
      <trkpt lat="43.32023" lon="-1.68519">
        <ele>246</ele>
        <time>2026-02-28T11:04:25Z</time>
      </trkpt>
      <trkpt lat="43.3203" lon="-1.68514">
        <ele>246</ele>
        <time>2026-02-28T11:04:27Z</time>
      </trkpt>
      <trkpt lat="43.32036" lon="-1.68507">
        <ele>246</ele>
        <time>2026-02-28T11:04:28Z</time>
      </trkpt>
      <trkpt lat="43.32041" lon="-1.68499">
        <ele>247</ele>
        <time>2026-02-28T11:04:29Z</time>
      </trkpt>
      <trkpt lat="43.32061" lon="-1.68451">
        <ele>248</ele>
        <time>2026-02-28T11:04:36Z</time>
      </trkpt>
      <trkpt lat="43.32071" lon="-1.68432">
        <ele>249</ele>
        <time>2026-02-28T11:04:39Z</time>
      </trkpt>
      <trkpt lat="43.32076" lon="-1.68429">
        <ele>248</ele>
        <time>2026-02-28T11:04:40Z</time>
      </trkpt>
      <trkpt lat="43.32084" lon="-1.68427">
        <ele>247</ele>
        <time>2026-02-28T11:04:42Z</time>
      </trkpt>
      <trkpt lat="43.32091" lon="-1.68432">
        <ele>248</ele>
        <time>2026-02-28T11:04:43Z</time>
      </trkpt>
      <trkpt lat="43.32094" lon="-1.68437">
        <ele>248</ele>
        <time>2026-02-28T11:04:44Z</time>
      </trkpt>
      <trkpt lat="43.32109" lon="-1.68481">
        <ele>247</ele>
        <time>2026-02-28T11:04:50Z</time>
      </trkpt>
      <trkpt lat="43.32112" lon="-1.68487">
        <ele>247</ele>
        <time>2026-02-28T11:04:51Z</time>
      </trkpt>
      <trkpt lat="43.32127" lon="-1.68505">
        <ele>247</ele>
        <time>2026-02-28T11:04:55Z</time>
      </trkpt>
      <trkpt lat="43.32131" lon="-1.68519">
        <ele>244</ele>
        <time>2026-02-28T11:04:57Z</time>
      </trkpt>
      <trkpt lat="43.32133" lon="-1.68552">
        <ele>237</ele>
        <time>2026-02-28T11:05:01Z</time>
      </trkpt>
      <trkpt lat="43.32136" lon="-1.68568">
        <ele>234</ele>
        <time>2026-02-28T11:05:03Z</time>
      </trkpt>
      <trkpt lat="43.32143" lon="-1.68582">
        <ele>231</ele>
        <time>2026-02-28T11:05:06Z</time>
      </trkpt>
      <trkpt lat="43.32149" lon="-1.68587">
        <ele>231</ele>
        <time>2026-02-28T11:05:07Z</time>
      </trkpt>
      <trkpt lat="43.32162" lon="-1.68593">
        <ele>231</ele>
        <time>2026-02-28T11:05:09Z</time>
      </trkpt>
      <trkpt lat="43.32196" lon="-1.68592">
        <ele>233</ele>
        <time>2026-02-28T11:05:15Z</time>
      </trkpt>
      <trkpt lat="43.32227" lon="-1.68596">
        <ele>235</ele>
        <time>2026-02-28T11:05:21Z</time>
      </trkpt>
      <trkpt lat="43.32233" lon="-1.68598">
        <ele>235</ele>
        <time>2026-02-28T11:05:22Z</time>
      </trkpt>
      <trkpt lat="43.32292" lon="-1.68632">
        <ele>229</ele>
        <time>2026-02-28T11:05:33Z</time>
      </trkpt>
      <trkpt lat="43.32324" lon="-1.68641">
        <ele>226</ele>
        <time>2026-02-28T11:05:39Z</time>
      </trkpt>
      <trkpt lat="43.3233" lon="-1.68645">
        <ele>224</ele>
        <time>2026-02-28T11:05:40Z</time>
      </trkpt>
      <trkpt lat="43.32348" lon="-1.68664">
        <ele>218</ele>
        <time>2026-02-28T11:05:44Z</time>
      </trkpt>
      <trkpt lat="43.32357" lon="-1.68667">
        <ele>216</ele>
        <time>2026-02-28T11:05:46Z</time>
      </trkpt>
      <trkpt lat="43.32377" lon="-1.68661">
        <ele>216</ele>
        <time>2026-02-28T11:05:50Z</time>
      </trkpt>
      <trkpt lat="43.32418" lon="-1.68631">
        <ele>223</ele>
        <time>2026-02-28T11:05:58Z</time>
      </trkpt>
      <trkpt lat="43.32437" lon="-1.68629">
        <ele>224</ele>
        <time>2026-02-28T11:06:01Z</time>
      </trkpt>
      <trkpt lat="43.32457" lon="-1.68633">
        <ele>222</ele>
        <time>2026-02-28T11:06:05Z</time>
      </trkpt>
      <trkpt lat="43.32469" lon="-1.68639">
        <ele>219</ele>
        <time>2026-02-28T11:06:07Z</time>
      </trkpt>
      <trkpt lat="43.32482" lon="-1.68648">
        <ele>216</ele>
        <time>2026-02-28T11:06:10Z</time>
      </trkpt>
      <trkpt lat="43.32524" lon="-1.68687">
        <ele>206</ele>
        <time>2026-02-28T11:06:19Z</time>
      </trkpt>
      <trkpt lat="43.32534" lon="-1.68691">
        <ele>205</ele>
        <time>2026-02-28T11:06:21Z</time>
      </trkpt>
      <trkpt lat="43.32547" lon="-1.68689">
        <ele>206</ele>
        <time>2026-02-28T11:06:23Z</time>
      </trkpt>
      <trkpt lat="43.32559" lon="-1.68684">
        <ele>207</ele>
        <time>2026-02-28T11:06:25Z</time>
      </trkpt>
      <trkpt lat="43.32585" lon="-1.68679">
        <ele>208</ele>
        <time>2026-02-28T11:06:30Z</time>
      </trkpt>
      <trkpt lat="43.32609" lon="-1.68665">
        <ele>210</ele>
        <time>2026-02-28T11:06:34Z</time>
      </trkpt>
      <trkpt lat="43.32613" lon="-1.68665">
        <ele>210</ele>
        <time>2026-02-28T11:06:35Z</time>
      </trkpt>
      <trkpt lat="43.32646" lon="-1.68676">
        <ele>205</ele>
        <time>2026-02-28T11:06:41Z</time>
      </trkpt>
      <trkpt lat="43.32686" lon="-1.68683">
        <ele>201</ele>
        <time>2026-02-28T11:06:48Z</time>
      </trkpt>
      <trkpt lat="43.32743" lon="-1.68712">
        <ele>190</ele>
        <time>2026-02-28T11:06:59Z</time>
      </trkpt>
      <trkpt lat="43.3276" lon="-1.68719">
        <ele>186</ele>
        <time>2026-02-28T11:07:02Z</time>
      </trkpt>
      <trkpt lat="43.32788" lon="-1.68723">
        <ele>183</ele>
        <time>2026-02-28T11:07:07Z</time>
      </trkpt>
      <trkpt lat="43.32821" lon="-1.68723">
        <ele>180</ele>
        <time>2026-02-28T11:07:13Z</time>
      </trkpt>
      <trkpt lat="43.32844" lon="-1.68719">
        <ele>178</ele>
        <time>2026-02-28T11:07:17Z</time>
      </trkpt>
      <trkpt lat="43.32869" lon="-1.68707">
        <ele>175</ele>
        <time>2026-02-28T11:07:22Z</time>
      </trkpt>
      <trkpt lat="43.32895" lon="-1.6869">
        <ele>173</ele>
        <time>2026-02-28T11:07:27Z</time>
      </trkpt>
      <trkpt lat="43.32927" lon="-1.68667">
        <ele>170</ele>
        <time>2026-02-28T11:07:34Z</time>
      </trkpt>
      <trkpt lat="43.32935" lon="-1.68659">
        <ele>168</ele>
        <time>2026-02-28T11:07:35Z</time>
      </trkpt>
      <trkpt lat="43.32944" lon="-1.68645">
        <ele>166</ele>
        <time>2026-02-28T11:07:38Z</time>
      </trkpt>
      <trkpt lat="43.32946" lon="-1.68628">
        <ele>166</ele>
        <time>2026-02-28T11:07:40Z</time>
      </trkpt>
      <trkpt lat="43.32946" lon="-1.68619">
        <ele>167</ele>
        <time>2026-02-28T11:07:41Z</time>
      </trkpt>
      <trkpt lat="43.32922" lon="-1.68535">
        <ele>170</ele>
        <time>2026-02-28T11:07:53Z</time>
      </trkpt>
      <trkpt lat="43.32915" lon="-1.6852">
        <ele>170</ele>
        <time>2026-02-28T11:07:55Z</time>
      </trkpt>
      <trkpt lat="43.32896" lon="-1.68499">
        <ele>172</ele>
        <time>2026-02-28T11:08:00Z</time>
      </trkpt>
      <trkpt lat="43.32891" lon="-1.68491">
        <ele>172</ele>
        <time>2026-02-28T11:08:01Z</time>
      </trkpt>
      <trkpt lat="43.3288" lon="-1.68468">
        <ele>173</ele>
        <time>2026-02-28T11:08:04Z</time>
      </trkpt>
      <trkpt lat="43.32874" lon="-1.68447">
        <ele>173</ele>
        <time>2026-02-28T11:08:07Z</time>
      </trkpt>
      <trkpt lat="43.32873" lon="-1.68429">
        <ele>171</ele>
        <time>2026-02-28T11:08:10Z</time>
      </trkpt>
      <trkpt lat="43.32874" lon="-1.68421">
        <ele>170</ele>
        <time>2026-02-28T11:08:11Z</time>
      </trkpt>
      <trkpt lat="43.32879" lon="-1.68408">
        <ele>168</ele>
        <time>2026-02-28T11:08:13Z</time>
      </trkpt>
      <trkpt lat="43.32894" lon="-1.68375">
        <ele>163</ele>
        <time>2026-02-28T11:08:18Z</time>
      </trkpt>
      <trkpt lat="43.32897" lon="-1.68362">
        <ele>162</ele>
        <time>2026-02-28T11:08:19Z</time>
      </trkpt>
      <trkpt lat="43.32893" lon="-1.68342">
        <ele>163</ele>
        <time>2026-02-28T11:08:22Z</time>
      </trkpt>
      <trkpt lat="43.32886" lon="-1.68322">
        <ele>164</ele>
        <time>2026-02-28T11:08:25Z</time>
      </trkpt>
      <trkpt lat="43.32884" lon="-1.6831">
        <ele>164</ele>
        <time>2026-02-28T11:08:27Z</time>
      </trkpt>
      <trkpt lat="43.32892" lon="-1.68262">
        <ele>157</ele>
        <time>2026-02-28T11:08:33Z</time>
      </trkpt>
      <trkpt lat="43.32893" lon="-1.68252">
        <ele>156</ele>
        <time>2026-02-28T11:08:34Z</time>
      </trkpt>
      <trkpt lat="43.32888" lon="-1.68221">
        <ele>153</ele>
        <time>2026-02-28T11:08:38Z</time>
      </trkpt>
      <trkpt lat="43.3288" lon="-1.68197">
        <ele>151</ele>
        <time>2026-02-28T11:08:42Z</time>
      </trkpt>
      <trkpt lat="43.32871" lon="-1.68181">
        <ele>151</ele>
        <time>2026-02-28T11:08:44Z</time>
      </trkpt>
      <trkpt lat="43.32854" lon="-1.68164">
        <ele>152</ele>
        <time>2026-02-28T11:08:48Z</time>
      </trkpt>
      <trkpt lat="43.32853" lon="-1.68156">
        <ele>150</ele>
        <time>2026-02-28T11:08:49Z</time>
      </trkpt>
      <trkpt lat="43.32856" lon="-1.68149">
        <ele>147</ele>
        <time>2026-02-28T11:08:50Z</time>
      </trkpt>
      <trkpt lat="43.32859" lon="-1.68147">
        <ele>146</ele>
        <time>2026-02-28T11:08:51Z</time>
      </trkpt>
      <trkpt lat="43.32866" lon="-1.68149">
        <ele>145</ele>
        <time>2026-02-28T11:08:52Z</time>
      </trkpt>
      <trkpt lat="43.32901" lon="-1.68189">
        <ele>144</ele>
        <time>2026-02-28T11:09:00Z</time>
      </trkpt>
      <trkpt lat="43.32912" lon="-1.68206">
        <ele>143</ele>
        <time>2026-02-28T11:09:03Z</time>
      </trkpt>
      <trkpt lat="43.32916" lon="-1.68216">
        <ele>143</ele>
        <time>2026-02-28T11:09:05Z</time>
      </trkpt>
      <trkpt lat="43.3292" lon="-1.68239">
        <ele>144</ele>
        <time>2026-02-28T11:09:08Z</time>
      </trkpt>
      <trkpt lat="43.3292" lon="-1.68288">
        <ele>149</ele>
        <time>2026-02-28T11:09:14Z</time>
      </trkpt>
      <trkpt lat="43.32921" lon="-1.68296">
        <ele>149</ele>
        <time>2026-02-28T11:09:15Z</time>
      </trkpt>
      <trkpt lat="43.32926" lon="-1.68306">
        <ele>148</ele>
        <time>2026-02-28T11:09:17Z</time>
      </trkpt>
      <trkpt lat="43.32932" lon="-1.68309">
        <ele>146</ele>
        <time>2026-02-28T11:09:18Z</time>
      </trkpt>
      <trkpt lat="43.32948" lon="-1.68306">
        <ele>140</ele>
        <time>2026-02-28T11:09:21Z</time>
      </trkpt>
      <trkpt lat="43.32959" lon="-1.68306">
        <ele>136</ele>
        <time>2026-02-28T11:09:23Z</time>
      </trkpt>
      <trkpt lat="43.32968" lon="-1.68314">
        <ele>134</ele>
        <time>2026-02-28T11:09:25Z</time>
      </trkpt>
      <trkpt lat="43.32973" lon="-1.68322">
        <ele>133</ele>
        <time>2026-02-28T11:09:26Z</time>
      </trkpt>
      <trkpt lat="43.32981" lon="-1.68344">
        <ele>132</ele>
        <time>2026-02-28T11:09:29Z</time>
      </trkpt>
      <trkpt lat="43.32983" lon="-1.68362">
        <ele>133</ele>
        <time>2026-02-28T11:09:31Z</time>
      </trkpt>
      <trkpt lat="43.32981" lon="-1.68376">
        <ele>135</ele>
        <time>2026-02-28T11:09:33Z</time>
      </trkpt>
      <trkpt lat="43.32971" lon="-1.68401">
        <ele>141</ele>
        <time>2026-02-28T11:09:37Z</time>
      </trkpt>
      <trkpt lat="43.32972" lon="-1.68412">
        <ele>141</ele>
        <time>2026-02-28T11:09:38Z</time>
      </trkpt>
      <trkpt lat="43.32976" lon="-1.6842">
        <ele>141</ele>
        <time>2026-02-28T11:09:40Z</time>
      </trkpt>
      <trkpt lat="43.3298" lon="-1.68424">
        <ele>140</ele>
        <time>2026-02-28T11:09:41Z</time>
      </trkpt>
      <trkpt lat="43.32988" lon="-1.68424">
        <ele>138</ele>
        <time>2026-02-28T11:09:42Z</time>
      </trkpt>
      <trkpt lat="43.33012" lon="-1.68418">
        <ele>131</ele>
        <time>2026-02-28T11:09:46Z</time>
      </trkpt>
      <trkpt lat="43.33028" lon="-1.68417">
        <ele>128</ele>
        <time>2026-02-28T11:09:49Z</time>
      </trkpt>
      <trkpt lat="43.33046" lon="-1.68427">
        <ele>125</ele>
        <time>2026-02-28T11:09:53Z</time>
      </trkpt>
      <trkpt lat="43.33073" lon="-1.68461">
        <ele>122</ele>
        <time>2026-02-28T11:09:59Z</time>
      </trkpt>
      <trkpt lat="43.33096" lon="-1.6851">
        <ele>122</ele>
        <time>2026-02-28T11:10:07Z</time>
      </trkpt>
      <trkpt lat="43.33113" lon="-1.68554">
        <ele>120</ele>
        <time>2026-02-28T11:10:13Z</time>
      </trkpt>
      <trkpt lat="43.33129" lon="-1.68575">
        <ele>118</ele>
        <time>2026-02-28T11:10:17Z</time>
      </trkpt>
      <trkpt lat="43.33145" lon="-1.68586">
        <ele>115</ele>
        <time>2026-02-28T11:10:20Z</time>
      </trkpt>
      <trkpt lat="43.33166" lon="-1.68591">
        <ele>110</ele>
        <time>2026-02-28T11:10:24Z</time>
      </trkpt>
      <trkpt lat="43.33176" lon="-1.68602">
        <ele>109</ele>
        <time>2026-02-28T11:10:26Z</time>
      </trkpt>
      <trkpt lat="43.33178" lon="-1.68622">
        <ele>109</ele>
        <time>2026-02-28T11:10:29Z</time>
      </trkpt>
      <trkpt lat="43.33177" lon="-1.68656">
        <ele>111</ele>
        <time>2026-02-28T11:10:33Z</time>
      </trkpt>
      <trkpt lat="43.33183" lon="-1.68678">
        <ele>110</ele>
        <time>2026-02-28T11:10:36Z</time>
      </trkpt>
      <trkpt lat="43.33201" lon="-1.68704">
        <ele>109</ele>
        <time>2026-02-28T11:10:41Z</time>
      </trkpt>
      <trkpt lat="43.33222" lon="-1.68721">
        <ele>107</ele>
        <time>2026-02-28T11:10:45Z</time>
      </trkpt>
      <trkpt lat="43.33262" lon="-1.68737">
        <ele>103</ele>
        <time>2026-02-28T11:10:53Z</time>
      </trkpt>
      <trkpt lat="43.33297" lon="-1.68742">
        <ele>100</ele>
        <time>2026-02-28T11:10:59Z</time>
      </trkpt>
      <trkpt lat="43.33377" lon="-1.6874">
        <ele>98</ele>
        <time>2026-02-28T11:11:13Z</time>
      </trkpt>
      <trkpt lat="43.33394" lon="-1.68738">
        <ele>98</ele>
        <time>2026-02-28T11:11:16Z</time>
      </trkpt>
      <trkpt lat="43.33391" lon="-1.68727">
        <ele>97</ele>
        <time>2026-02-28T11:11:18Z</time>
      </trkpt>
      <trkpt lat="43.33392" lon="-1.68671">
        <ele>95</ele>
        <time>2026-02-28T11:11:25Z</time>
      </trkpt>
      <trkpt lat="43.33402" lon="-1.68459">
        <ele>86</ele>
        <time>2026-02-28T11:11:53Z</time>
      </trkpt>
      <trkpt lat="43.33417" lon="-1.68082">
        <ele>75</ele>
        <time>2026-02-28T11:12:41Z</time>
      </trkpt>
      <trkpt lat="43.33424" lon="-1.67866">
        <ele>69</ele>
        <time>2026-02-28T11:13:09Z</time>
      </trkpt>
      <trkpt lat="43.33429" lon="-1.67776">
        <ele>66</ele>
        <time>2026-02-28T11:13:21Z</time>
      </trkpt>
      <trkpt lat="43.33431" lon="-1.67754">
        <ele>66</ele>
        <time>2026-02-28T11:13:24Z</time>
      </trkpt>
      <trkpt lat="43.33458" lon="-1.67596">
        <ele>62</ele>
        <time>2026-02-28T11:13:45Z</time>
      </trkpt>
      <trkpt lat="43.33465" lon="-1.67543">
        <ele>60</ele>
        <time>2026-02-28T11:13:52Z</time>
      </trkpt>
      <trkpt lat="43.33471" lon="-1.67453">
        <ele>58</ele>
        <time>2026-02-28T11:14:04Z</time>
      </trkpt>
      <trkpt lat="43.33472" lon="-1.67396">
        <ele>57</ele>
        <time>2026-02-28T11:14:11Z</time>
      </trkpt>
      <trkpt lat="43.3347" lon="-1.67366">
        <ele>56</ele>
        <time>2026-02-28T11:14:15Z</time>
      </trkpt>
      <trkpt lat="43.33465" lon="-1.67337">
        <ele>55</ele>
        <time>2026-02-28T11:14:19Z</time>
      </trkpt>
      <trkpt lat="43.33438" lon="-1.67201">
        <ele>52</ele>
        <time>2026-02-28T11:14:37Z</time>
      </trkpt>
      <trkpt lat="43.33438" lon="-1.6714">
        <ele>51</ele>
        <time>2026-02-28T11:14:45Z</time>
      </trkpt>
      <trkpt lat="43.33449" lon="-1.66967">
        <ele>52</ele>
        <time>2026-02-28T11:15:07Z</time>
      </trkpt>
      <trkpt lat="43.33452" lon="-1.6695">
        <ele>53</ele>
        <time>2026-02-28T11:15:10Z</time>
      </trkpt>
      <trkpt lat="43.33461" lon="-1.66923">
        <ele>52</ele>
        <time>2026-02-28T11:15:14Z</time>
      </trkpt>
      <trkpt lat="43.33472" lon="-1.669">
        <ele>51</ele>
        <time>2026-02-28T11:15:17Z</time>
      </trkpt>
      <trkpt lat="43.33517" lon="-1.66837">
        <ele>46</ele>
        <time>2026-02-28T11:15:28Z</time>
      </trkpt>
      <trkpt lat="43.3354" lon="-1.66811">
        <ele>45</ele>
        <time>2026-02-28T11:15:34Z</time>
      </trkpt>
      <trkpt lat="43.33551" lon="-1.66806">
        <ele>45</ele>
        <time>2026-02-28T11:15:36Z</time>
      </trkpt>
      <trkpt lat="43.3358" lon="-1.668">
        <ele>45</ele>
        <time>2026-02-28T11:15:41Z</time>
      </trkpt>
      <trkpt lat="43.33596" lon="-1.66791">
        <ele>45</ele>
        <time>2026-02-28T11:15:44Z</time>
      </trkpt>
      <trkpt lat="43.33597" lon="-1.66783">
        <ele>45</ele>
        <time>2026-02-28T11:15:45Z</time>
      </trkpt>
      <trkpt lat="43.33602" lon="-1.66779">
        <ele>45</ele>
        <time>2026-02-28T11:15:46Z</time>
      </trkpt>
      <trkpt lat="43.33606" lon="-1.66779">
        <ele>45</ele>
        <time>2026-02-28T11:15:47Z</time>
      </trkpt>
      <trkpt lat="43.33611" lon="-1.66782">
        <ele>45</ele>
        <time>2026-02-28T11:15:48Z</time>
      </trkpt>
      <trkpt lat="43.33621" lon="-1.66781">
        <ele>45</ele>
        <time>2026-02-28T11:15:50Z</time>
      </trkpt>
      <trkpt lat="43.33629" lon="-1.66778">
        <ele>45</ele>
        <time>2026-02-28T11:15:51Z</time>
      </trkpt>
      <trkpt lat="43.33633" lon="-1.66772">
        <ele>45</ele>
        <time>2026-02-28T11:15:52Z</time>
      </trkpt>
      <trkpt lat="43.33641" lon="-1.66759">
        <ele>45</ele>
        <time>2026-02-28T11:15:54Z</time>
      </trkpt>
      <trkpt lat="43.33655" lon="-1.66718">
        <ele>47</ele>
        <time>2026-02-28T11:16:00Z</time>
      </trkpt>
      <trkpt lat="43.33666" lon="-1.66662">
        <ele>48</ele>
        <time>2026-02-28T11:16:08Z</time>
      </trkpt>
      <trkpt lat="43.33672" lon="-1.66622">
        <ele>50</ele>
        <time>2026-02-28T11:16:13Z</time>
      </trkpt>
      <trkpt lat="43.33671" lon="-1.66597">
        <ele>50</ele>
        <time>2026-02-28T11:16:16Z</time>
      </trkpt>
      <trkpt lat="43.33666" lon="-1.66563">
        <ele>52</ele>
        <time>2026-02-28T11:16:21Z</time>
      </trkpt>
      <trkpt lat="43.33661" lon="-1.6654">
        <ele>53</ele>
        <time>2026-02-28T11:16:24Z</time>
      </trkpt>
      <trkpt lat="43.33625" lon="-1.66444">
        <ele>59</ele>
        <time>2026-02-28T11:16:38Z</time>
      </trkpt>
      <trkpt lat="43.33615" lon="-1.66412">
        <ele>62</ele>
        <time>2026-02-28T11:16:42Z</time>
      </trkpt>
      <trkpt lat="43.33608" lon="-1.66377">
        <ele>64</ele>
        <time>2026-02-28T11:16:47Z</time>
      </trkpt>
      <trkpt lat="43.33607" lon="-1.66344">
        <ele>65</ele>
        <time>2026-02-28T11:16:51Z</time>
      </trkpt>
      <trkpt lat="43.33615" lon="-1.66263">
        <ele>67</ele>
        <time>2026-02-28T11:17:02Z</time>
      </trkpt>
      <trkpt lat="43.33622" lon="-1.6624">
        <ele>67</ele>
        <time>2026-02-28T11:17:05Z</time>
      </trkpt>
      <trkpt lat="43.33645" lon="-1.66182">
        <ele>65</ele>
        <time>2026-02-28T11:17:14Z</time>
      </trkpt>
      <trkpt lat="43.3365" lon="-1.66164">
        <ele>65</ele>
        <time>2026-02-28T11:17:16Z</time>
      </trkpt>
      <trkpt lat="43.33677" lon="-1.66023">
        <ele>69</ele>
        <time>2026-02-28T11:17:35Z</time>
      </trkpt>
      <trkpt lat="43.33695" lon="-1.6592">
        <ele>68</ele>
        <time>2026-02-28T11:17:49Z</time>
      </trkpt>
      <trkpt lat="43.33716" lon="-1.65754">
        <ele>66</ele>
        <time>2026-02-28T11:18:11Z</time>
      </trkpt>
      <trkpt lat="43.3373" lon="-1.65677">
        <ele>64</ele>
        <time>2026-02-28T11:18:21Z</time>
      </trkpt>
      <trkpt lat="43.33776" lon="-1.65454">
        <ele>65</ele>
        <time>2026-02-28T11:18:51Z</time>
      </trkpt>
      <trkpt lat="43.33986" lon="-1.64473">
        <ele>37</ele>
        <time>2026-02-28T11:21:03Z</time>
      </trkpt>
      <trkpt lat="43.34019" lon="-1.64309">
        <ele>35</ele>
        <time>2026-02-28T11:21:25Z</time>
      </trkpt>
      <trkpt lat="43.34023" lon="-1.64283">
        <ele>35</ele>
        <time>2026-02-28T11:21:29Z</time>
      </trkpt>
      <trkpt lat="43.34024" lon="-1.64261">
        <ele>35</ele>
        <time>2026-02-28T11:21:32Z</time>
      </trkpt>
      <trkpt lat="43.34022" lon="-1.64205">
        <ele>35</ele>
        <time>2026-02-28T11:21:39Z</time>
      </trkpt>
      <trkpt lat="43.34024" lon="-1.64173">
        <ele>35</ele>
        <time>2026-02-28T11:21:43Z</time>
      </trkpt>
      <trkpt lat="43.3403" lon="-1.64148">
        <ele>35</ele>
        <time>2026-02-28T11:21:46Z</time>
      </trkpt>
      <trkpt lat="43.34039" lon="-1.64126">
        <ele>36</ele>
        <time>2026-02-28T11:21:50Z</time>
      </trkpt>
      <trkpt lat="43.34062" lon="-1.64097">
        <ele>37</ele>
        <time>2026-02-28T11:21:55Z</time>
      </trkpt>
      <trkpt lat="43.34096" lon="-1.64075">
        <ele>39</ele>
        <time>2026-02-28T11:22:02Z</time>
      </trkpt>
      <trkpt lat="43.34139" lon="-1.64055">
        <ele>43</ele>
        <time>2026-02-28T11:22:10Z</time>
      </trkpt>
      <trkpt lat="43.34156" lon="-1.6404">
        <ele>45</ele>
        <time>2026-02-28T11:22:14Z</time>
      </trkpt>
      <trkpt lat="43.34177" lon="-1.64013">
        <ele>47</ele>
        <time>2026-02-28T11:22:19Z</time>
      </trkpt>
      <trkpt lat="43.34187" lon="-1.63993">
        <ele>48</ele>
        <time>2026-02-28T11:22:22Z</time>
      </trkpt>
      <trkpt lat="43.34205" lon="-1.63948">
        <ele>48</ele>
        <time>2026-02-28T11:22:28Z</time>
      </trkpt>
      <trkpt lat="43.34219" lon="-1.63911">
        <ele>48</ele>
        <time>2026-02-28T11:22:34Z</time>
      </trkpt>
      <trkpt lat="43.34226" lon="-1.63883">
        <ele>49</ele>
        <time>2026-02-28T11:22:38Z</time>
      </trkpt>
      <trkpt lat="43.34229" lon="-1.63858">
        <ele>49</ele>
        <time>2026-02-28T11:22:41Z</time>
      </trkpt>
      <trkpt lat="43.34228" lon="-1.63827">
        <ele>50</ele>
        <time>2026-02-28T11:22:45Z</time>
      </trkpt>
      <trkpt lat="43.34223" lon="-1.63792">
        <ele>51</ele>
        <time>2026-02-28T11:22:50Z</time>
      </trkpt>
      <trkpt lat="43.34207" lon="-1.63727">
        <ele>50</ele>
        <time>2026-02-28T11:22:58Z</time>
      </trkpt>
      <trkpt lat="43.34206" lon="-1.63713">
        <ele>50</ele>
        <time>2026-02-28T11:23:00Z</time>
      </trkpt>
      <trkpt lat="43.34207" lon="-1.63691">
        <ele>49</ele>
        <time>2026-02-28T11:23:03Z</time>
      </trkpt>
      <trkpt lat="43.34216" lon="-1.6366">
        <ele>48</ele>
        <time>2026-02-28T11:23:07Z</time>
      </trkpt>
      <trkpt lat="43.34246" lon="-1.63597">
        <ele>46</ele>
        <time>2026-02-28T11:23:17Z</time>
      </trkpt>
      <trkpt lat="43.34258" lon="-1.63562">
        <ele>44</ele>
        <time>2026-02-28T11:23:22Z</time>
      </trkpt>
      <trkpt lat="43.34262" lon="-1.63522">
        <ele>42</ele>
        <time>2026-02-28T11:23:27Z</time>
      </trkpt>
      <trkpt lat="43.3426" lon="-1.63493">
        <ele>40</ele>
        <time>2026-02-28T11:23:31Z</time>
      </trkpt>
      <trkpt lat="43.34245" lon="-1.63447">
        <ele>39</ele>
        <time>2026-02-28T11:23:38Z</time>
      </trkpt>
      <trkpt lat="43.34224" lon="-1.63385">
        <ele>37</ele>
        <time>2026-02-28T11:23:47Z</time>
      </trkpt>
      <trkpt lat="43.34222" lon="-1.63363">
        <ele>36</ele>
        <time>2026-02-28T11:23:49Z</time>
      </trkpt>
      <trkpt lat="43.34227" lon="-1.63343">
        <ele>36</ele>
        <time>2026-02-28T11:23:52Z</time>
      </trkpt>
      <trkpt lat="43.34276" lon="-1.63237">
        <ele>35</ele>
        <time>2026-02-28T11:24:08Z</time>
      </trkpt>
      <trkpt lat="43.34294" lon="-1.63188">
        <ele>32</ele>
        <time>2026-02-28T11:24:16Z</time>
      </trkpt>
      <trkpt lat="43.34333" lon="-1.63028">
        <ele>22</ele>
        <time>2026-02-28T11:24:37Z</time>
      </trkpt>
      <trkpt lat="43.34344" lon="-1.62964">
        <ele>17</ele>
        <time>2026-02-28T11:24:46Z</time>
      </trkpt>
      <trkpt lat="43.34355" lon="-1.62855">
        <ele>12</ele>
        <time>2026-02-28T11:25:00Z</time>
      </trkpt>
      <trkpt lat="43.34362" lon="-1.62749">
        <ele>13</ele>
        <time>2026-02-28T11:25:14Z</time>
      </trkpt>
      <trkpt lat="43.3436" lon="-1.62626">
        <ele>17</ele>
        <time>2026-02-28T11:25:30Z</time>
      </trkpt>
      <trkpt lat="43.34362" lon="-1.62606">
        <ele>18</ele>
        <time>2026-02-28T11:25:32Z</time>
      </trkpt>
      <trkpt lat="43.34366" lon="-1.6258">
        <ele>19</ele>
        <time>2026-02-28T11:25:36Z</time>
      </trkpt>
      <trkpt lat="43.34385" lon="-1.62513">
        <ele>22</ele>
        <time>2026-02-28T11:25:45Z</time>
      </trkpt>
      <trkpt lat="43.3441" lon="-1.62438">
        <ele>24</ele>
        <time>2026-02-28T11:25:56Z</time>
      </trkpt>
      <trkpt lat="43.34413" lon="-1.62431">
        <ele>24</ele>
        <time>2026-02-28T11:25:57Z</time>
      </trkpt>
      <trkpt lat="43.34437" lon="-1.624">
        <ele>24</ele>
        <time>2026-02-28T11:26:03Z</time>
      </trkpt>
      <trkpt lat="43.34446" lon="-1.62381">
        <ele>23</ele>
        <time>2026-02-28T11:26:06Z</time>
      </trkpt>
      <trkpt lat="43.34448" lon="-1.62357">
        <ele>22</ele>
        <time>2026-02-28T11:26:09Z</time>
      </trkpt>
      <trkpt lat="43.34444" lon="-1.62311">
        <ele>21</ele>
        <time>2026-02-28T11:26:15Z</time>
      </trkpt>
      <trkpt lat="43.34472" lon="-1.62313">
        <ele>20</ele>
        <time>2026-02-28T11:26:20Z</time>
      </trkpt>
      <trkpt lat="43.34526" lon="-1.6231">
        <ele>18</ele>
        <time>2026-02-28T11:26:29Z</time>
      </trkpt>
      <trkpt lat="43.34573" lon="-1.62311">
        <ele>14</ele>
        <time>2026-02-28T11:26:38Z</time>
      </trkpt>
      <trkpt lat="43.34633" lon="-1.62341">
        <ele>13</ele>
        <time>2026-02-28T11:26:49Z</time>
      </trkpt>
      <trkpt lat="43.3467" lon="-1.62365">
        <ele>13</ele>
        <time>2026-02-28T11:26:56Z</time>
      </trkpt>
      <trkpt lat="43.34725" lon="-1.62422">
        <ele>9</ele>
        <time>2026-02-28T11:27:09Z</time>
      </trkpt>
      <trkpt lat="43.34769" lon="-1.62469">
        <ele>6</ele>
        <time>2026-02-28T11:27:19Z</time>
      </trkpt>
      <trkpt lat="43.34809" lon="-1.62521">
        <ele>6</ele>
        <time>2026-02-28T11:27:28Z</time>
      </trkpt>
      <trkpt lat="43.34839" lon="-1.62552">
        <ele>6</ele>
        <time>2026-02-28T11:27:35Z</time>
      </trkpt>
      <trkpt lat="43.34846" lon="-1.62566">
        <ele>6</ele>
        <time>2026-02-28T11:27:37Z</time>
      </trkpt>
      <trkpt lat="43.34919" lon="-1.62667">
        <ele>3</ele>
        <time>2026-02-28T11:27:56Z</time>
      </trkpt>
      <trkpt lat="43.34922" lon="-1.62669">
        <ele>3</ele>
        <time>2026-02-28T11:27:56Z</time>
      </trkpt>
      <trkpt lat="43.34908" lon="-1.62721">
        <ele>4</ele>
        <time>2026-02-28T11:28:03Z</time>
      </trkpt>
      <trkpt lat="43.34905" lon="-1.62741">
        <ele>5</ele>
        <time>2026-02-28T11:28:06Z</time>
      </trkpt>
      <trkpt lat="43.34936" lon="-1.6279">
        <ele>5</ele>
        <time>2026-02-28T11:28:14Z</time>
      </trkpt>
      <trkpt lat="43.34951" lon="-1.62807">
        <ele>5</ele>
        <time>2026-02-28T11:28:18Z</time>
      </trkpt>
      <trkpt lat="43.34962" lon="-1.62817">
        <ele>5</ele>
        <time>2026-02-28T11:28:20Z</time>
      </trkpt>
      <trkpt lat="43.3499" lon="-1.6283">
        <ele>4</ele>
        <time>2026-02-28T11:28:26Z</time>
      </trkpt>
      <trkpt lat="43.34997" lon="-1.62836">
        <ele>4</ele>
        <time>2026-02-28T11:28:27Z</time>
      </trkpt>
      <trkpt lat="43.35093" lon="-1.62935">
        <ele>3</ele>
        <time>2026-02-28T11:28:48Z</time>
      </trkpt>
      <trkpt lat="43.35124" lon="-1.62964">
        <ele>3</ele>
        <time>2026-02-28T11:28:55Z</time>
      </trkpt>
      <trkpt lat="43.35202" lon="-1.63012">
        <ele>2</ele>
        <time>2026-02-28T11:29:10Z</time>
      </trkpt>
      <trkpt lat="43.35228" lon="-1.63025">
        <ele>3</ele>
        <time>2026-02-28T11:29:15Z</time>
      </trkpt>
      <trkpt lat="43.35256" lon="-1.63048">
        <ele>4</ele>
        <time>2026-02-28T11:29:21Z</time>
      </trkpt>
      <trkpt lat="43.35266" lon="-1.63062">
        <ele>4</ele>
        <time>2026-02-28T11:29:23Z</time>
      </trkpt>
      <trkpt lat="43.35274" lon="-1.63084">
        <ele>5</ele>
        <time>2026-02-28T11:29:27Z</time>
      </trkpt>
      <trkpt lat="43.35277" lon="-1.63102">
        <ele>5</ele>
        <time>2026-02-28T11:29:29Z</time>
      </trkpt>
      <trkpt lat="43.35276" lon="-1.6312">
        <ele>5</ele>
        <time>2026-02-28T11:29:31Z</time>
      </trkpt>
      <trkpt lat="43.35251" lon="-1.63226">
        <ele>5</ele>
        <time>2026-02-28T11:29:46Z</time>
      </trkpt>
      <trkpt lat="43.35235" lon="-1.63276">
        <ele>11</ele>
        <time>2026-02-28T11:29:53Z</time>
      </trkpt>
      <trkpt lat="43.35234" lon="-1.63288">
        <ele>13</ele>
        <time>2026-02-28T11:29:54Z</time>
      </trkpt>
      <trkpt lat="43.35236" lon="-1.633">
        <ele>15</ele>
        <time>2026-02-28T11:29:56Z</time>
      </trkpt>
      <trkpt lat="43.35251" lon="-1.63322">
        <ele>17</ele>
        <time>2026-02-28T11:30:00Z</time>
      </trkpt>
      <trkpt lat="43.35296" lon="-1.63355">
        <ele>16</ele>
        <time>2026-02-28T11:30:09Z</time>
      </trkpt>
      <trkpt lat="43.35303" lon="-1.63364">
        <ele>17</ele>
        <time>2026-02-28T11:30:11Z</time>
      </trkpt>
      <trkpt lat="43.35319" lon="-1.63377">
        <ele>17</ele>
        <time>2026-02-28T11:30:14Z</time>
      </trkpt>
      <trkpt lat="43.35377" lon="-1.63437">
        <ele>17</ele>
        <time>2026-02-28T11:30:27Z</time>
      </trkpt>
      <trkpt lat="43.35491" lon="-1.63519">
        <ele>7</ele>
        <time>2026-02-28T11:30:50Z</time>
      </trkpt>
      <trkpt lat="43.35539" lon="-1.6355">
        <ele>5</ele>
        <time>2026-02-28T11:30:59Z</time>
      </trkpt>
      <trkpt lat="43.35587" lon="-1.63586">
        <ele>4</ele>
        <time>2026-02-28T11:31:09Z</time>
      </trkpt>
      <trkpt lat="43.35602" lon="-1.63595">
        <ele>4</ele>
        <time>2026-02-28T11:31:12Z</time>
      </trkpt>
      <trkpt lat="43.35614" lon="-1.636">
        <ele>4</ele>
        <time>2026-02-28T11:31:14Z</time>
      </trkpt>
      <trkpt lat="43.35618" lon="-1.636">
        <ele>4</ele>
        <time>2026-02-28T11:31:15Z</time>
      </trkpt>
      <trkpt lat="43.35625" lon="-1.63606">
        <ele>3</ele>
        <time>2026-02-28T11:31:16Z</time>
      </trkpt>
      <trkpt lat="43.35598" lon="-1.63912">
        <ele>10</ele>
        <time>2026-02-28T11:31:56Z</time>
      </trkpt>
      <trkpt lat="43.35621" lon="-1.63921">
        <ele>11</ele>
        <time>2026-02-28T11:32:00Z</time>
      </trkpt>
      <trkpt lat="43.35667" lon="-1.63952">
        <ele>13</ele>
        <time>2026-02-28T11:32:10Z</time>
      </trkpt>
      <trkpt lat="43.3575" lon="-1.64004">
        <ele>16</ele>
        <time>2026-02-28T11:32:26Z</time>
      </trkpt>
      <trkpt lat="43.35806" lon="-1.64036">
        <ele>14</ele>
        <time>2026-02-28T11:32:37Z</time>
      </trkpt>
      <trkpt lat="43.35819" lon="-1.64043">
        <ele>13</ele>
        <time>2026-02-28T11:32:39Z</time>
      </trkpt>
      <trkpt lat="43.35835" lon="-1.64047">
        <ele>12</ele>
        <time>2026-02-28T11:32:42Z</time>
      </trkpt>
      <trkpt lat="43.35931" lon="-1.64055">
        <ele>9</ele>
        <time>2026-02-28T11:32:59Z</time>
      </trkpt>
      <trkpt lat="43.35974" lon="-1.64053">
        <ele>8</ele>
        <time>2026-02-28T11:33:07Z</time>
      </trkpt>
      <trkpt lat="43.36042" lon="-1.64044">
        <ele>7</ele>
        <time>2026-02-28T11:33:19Z</time>
      </trkpt>
      <trkpt lat="43.36086" lon="-1.6404">
        <ele>6</ele>
        <time>2026-02-28T11:33:27Z</time>
      </trkpt>
      <trkpt lat="43.36112" lon="-1.64046">
        <ele>9</ele>
        <time>2026-02-28T11:33:31Z</time>
      </trkpt>
      <trkpt lat="43.36154" lon="-1.64061">
        <ele>14</ele>
        <time>2026-02-28T11:33:39Z</time>
      </trkpt>
      <trkpt lat="43.36345" lon="-1.64038">
        <ele>16</ele>
        <time>2026-02-28T11:34:13Z</time>
      </trkpt>
      <trkpt lat="43.36363" lon="-1.64042">
        <ele>15</ele>
        <time>2026-02-28T11:34:16Z</time>
      </trkpt>
      <trkpt lat="43.36379" lon="-1.64049">
        <ele>15</ele>
        <time>2026-02-28T11:34:19Z</time>
      </trkpt>
      <trkpt lat="43.36568" lon="-1.64157">
        <ele>8</ele>
        <time>2026-02-28T11:34:56Z</time>
      </trkpt>
      <trkpt lat="43.36771" lon="-1.64278">
        <ele>4</ele>
        <time>2026-02-28T11:35:35Z</time>
      </trkpt>
      <trkpt lat="43.3748" lon="-1.6473">
        <ele>6</ele>
        <time>2026-02-28T11:37:54Z</time>
      </trkpt>
      <trkpt lat="43.37507" lon="-1.64744">
        <ele>6</ele>
        <time>2026-02-28T11:37:59Z</time>
      </trkpt>
      <trkpt lat="43.37527" lon="-1.6475">
        <ele>6</ele>
        <time>2026-02-28T11:38:03Z</time>
      </trkpt>
      <trkpt lat="43.37544" lon="-1.64748">
        <ele>5</ele>
        <time>2026-02-28T11:38:06Z</time>
      </trkpt>
      <trkpt lat="43.37579" lon="-1.64735">
        <ele>4</ele>
        <time>2026-02-28T11:38:13Z</time>
      </trkpt>
      <trkpt lat="43.37644" lon="-1.64693">
        <ele>5</ele>
        <time>2026-02-28T11:38:25Z</time>
      </trkpt>
      <trkpt lat="43.37666" lon="-1.64686">
        <ele>6</ele>
        <time>2026-02-28T11:38:29Z</time>
      </trkpt>
      <trkpt lat="43.3769" lon="-1.64692">
        <ele>6</ele>
        <time>2026-02-28T11:38:34Z</time>
      </trkpt>
      <trkpt lat="43.37713" lon="-1.64704">
        <ele>6</ele>
        <time>2026-02-28T11:38:38Z</time>
      </trkpt>
      <trkpt lat="43.3776" lon="-1.64734">
        <ele>7</ele>
        <time>2026-02-28T11:38:47Z</time>
      </trkpt>
      <trkpt lat="43.37823" lon="-1.64775">
        <ele>6</ele>
        <time>2026-02-28T11:39:00Z</time>
      </trkpt>
      <trkpt lat="43.37848" lon="-1.64801">
        <ele>5</ele>
        <time>2026-02-28T11:39:05Z</time>
      </trkpt>
      <trkpt lat="43.37861" lon="-1.64828">
        <ele>5</ele>
        <time>2026-02-28T11:39:09Z</time>
      </trkpt>
      <trkpt lat="43.37876" lon="-1.64882">
        <ele>5</ele>
        <time>2026-02-28T11:39:17Z</time>
      </trkpt>
      <trkpt lat="43.37865" lon="-1.64862">
        <ele>5</ele>
        <time>2026-02-28T11:39:20Z</time>
      </trkpt>
      <trkpt lat="43.37876" lon="-1.64882">
        <ele>5</ele>
        <time>2026-02-28T11:39:23Z</time>
      </trkpt>
      <trkpt lat="43.37881" lon="-1.649">
        <ele>5</ele>
        <time>2026-02-28T11:39:26Z</time>
      </trkpt>
      <trkpt lat="43.37896" lon="-1.64971">
        <ele>4</ele>
        <time>2026-02-28T11:39:35Z</time>
      </trkpt>
      <trkpt lat="43.37903" lon="-1.65042">
        <ele>5</ele>
        <time>2026-02-28T11:39:45Z</time>
      </trkpt>
      <trkpt lat="43.3791" lon="-1.65045">
        <ele>5</ele>
        <time>2026-02-28T11:39:46Z</time>
      </trkpt>
      <trkpt lat="43.37914" lon="-1.65069">
        <ele>5</ele>
        <time>2026-02-28T11:39:49Z</time>
      </trkpt>
      <trkpt lat="43.37972" lon="-1.65255">
        <ele>11</ele>
        <time>2026-02-28T11:40:15Z</time>
      </trkpt>
      <trkpt lat="43.37977" lon="-1.65284">
        <ele>10</ele>
        <time>2026-02-28T11:40:19Z</time>
      </trkpt>
      <trkpt lat="43.37979" lon="-1.65382">
        <ele>7</ele>
        <time>2026-02-28T11:40:32Z</time>
      </trkpt>
      <trkpt lat="43.37985" lon="-1.65418">
        <ele>6</ele>
        <time>2026-02-28T11:40:37Z</time>
      </trkpt>
      <trkpt lat="43.37994" lon="-1.65444">
        <ele>5</ele>
        <time>2026-02-28T11:40:40Z</time>
      </trkpt>
      <trkpt lat="43.38008" lon="-1.65471">
        <ele>4</ele>
        <time>2026-02-28T11:40:45Z</time>
      </trkpt>
      <trkpt lat="43.38023" lon="-1.65496">
        <ele>4</ele>
        <time>2026-02-28T11:40:49Z</time>
      </trkpt>
      <trkpt lat="43.3804" lon="-1.65515">
        <ele>5</ele>
        <time>2026-02-28T11:40:53Z</time>
      </trkpt>
      <trkpt lat="43.38054" lon="-1.65545">
        <ele>5</ele>
        <time>2026-02-28T11:40:57Z</time>
      </trkpt>
      <trkpt lat="43.38083" lon="-1.65618">
        <ele>5</ele>
        <time>2026-02-28T11:41:08Z</time>
      </trkpt>
      <trkpt lat="43.38089" lon="-1.65644">
        <ele>4</ele>
        <time>2026-02-28T11:41:12Z</time>
      </trkpt>
      <trkpt lat="43.38091" lon="-1.65659">
        <ele>4</ele>
        <time>2026-02-28T11:41:14Z</time>
      </trkpt>
      <trkpt lat="43.3809" lon="-1.65749">
        <ele>3</ele>
        <time>2026-02-28T11:41:25Z</time>
      </trkpt>
      <trkpt lat="43.38094" lon="-1.65775">
        <ele>2</ele>
        <time>2026-02-28T11:41:29Z</time>
      </trkpt>
      <trkpt lat="43.38111" lon="-1.65839">
        <ele>-1</ele>
        <time>2026-02-28T11:41:38Z</time>
      </trkpt>
      <trkpt lat="43.38117" lon="-1.65877">
        <ele>-1</ele>
        <time>2026-02-28T11:41:43Z</time>
      </trkpt>
      <trkpt lat="43.38119" lon="-1.65927">
        <ele>4</ele>
        <time>2026-02-28T11:41:49Z</time>
      </trkpt>
      <trkpt lat="43.38118" lon="-1.6598">
        <ele>2</ele>
        <time>2026-02-28T11:41:56Z</time>
      </trkpt>
      <trkpt lat="43.3811" lon="-1.65982">
        <ele>3</ele>
        <time>2026-02-28T11:41:57Z</time>
      </trkpt>
      <trkpt lat="43.38121" lon="-1.66011">
        <ele>3</ele>
        <time>2026-02-28T11:42:02Z</time>
      </trkpt>
      <trkpt lat="43.38181" lon="-1.66132">
        <ele>3</ele>
        <time>2026-02-28T11:42:21Z</time>
      </trkpt>
      <trkpt lat="43.38238" lon="-1.66228">
        <ele>4</ele>
        <time>2026-02-28T11:42:37Z</time>
      </trkpt>
      <trkpt lat="43.38298" lon="-1.66335">
        <ele>5</ele>
        <time>2026-02-28T11:42:54Z</time>
      </trkpt>
      <trkpt lat="43.38306" lon="-1.66354">
        <ele>5</ele>
        <time>2026-02-28T11:42:57Z</time>
      </trkpt>
      <trkpt lat="43.38297" lon="-1.66411">
        <ele>5</ele>
        <time>2026-02-28T11:43:04Z</time>
      </trkpt>
      <trkpt lat="43.38291" lon="-1.66432">
        <ele>5</ele>
        <time>2026-02-28T11:43:07Z</time>
      </trkpt>
      <trkpt lat="43.38284" lon="-1.66442">
        <ele>5</ele>
        <time>2026-02-28T11:43:09Z</time>
      </trkpt>
      <trkpt lat="43.3826" lon="-1.66462">
        <ele>5</ele>
        <time>2026-02-28T11:43:14Z</time>
      </trkpt>
      <trkpt lat="43.38264" lon="-1.66503">
        <ele>4</ele>
        <time>2026-02-28T11:43:19Z</time>
      </trkpt>
      <trkpt lat="43.38272" lon="-1.66557">
        <ele>4</ele>
        <time>2026-02-28T11:43:27Z</time>
      </trkpt>
      <trkpt lat="43.38327" lon="-1.66703">
        <ele>6</ele>
        <time>2026-02-28T11:43:48Z</time>
      </trkpt>
      <trkpt lat="43.38343" lon="-1.66748">
        <ele>6</ele>
        <time>2026-02-28T11:43:54Z</time>
      </trkpt>
      <trkpt lat="43.38344" lon="-1.66759">
        <ele>7</ele>
        <time>2026-02-28T11:43:56Z</time>
      </trkpt>
      <trkpt lat="43.38366" lon="-1.66755">
        <ele>6</ele>
        <time>2026-02-28T11:44:00Z</time>
      </trkpt>
      <trkpt lat="43.38373" lon="-1.6675">
        <ele>6</ele>
        <time>2026-02-28T11:44:01Z</time>
      </trkpt>
      <trkpt lat="43.38449" lon="-1.66646">
        <ele>4</ele>
        <time>2026-02-28T11:44:20Z</time>
      </trkpt>
      <trkpt lat="43.38446" lon="-1.66639">
        <ele>4</ele>
        <time>2026-02-28T11:44:21Z</time>
      </trkpt>
      <trkpt lat="43.38446" lon="-1.66631">
        <ele>4</ele>
        <time>2026-02-28T11:44:22Z</time>
      </trkpt>
      <trkpt lat="43.38411" lon="-1.66589">
        <ele>4</ele>
        <time>2026-02-28T11:44:31Z</time>
      </trkpt>
      <trkpt lat="43.38408" lon="-1.66568">
        <ele>4</ele>
        <time>2026-02-28T11:44:33Z</time>
      </trkpt>
      <trkpt lat="43.38416" lon="-1.66546">
        <ele>4</ele>
        <time>2026-02-28T11:44:37Z</time>
      </trkpt>
      <trkpt lat="43.38482" lon="-1.6642">
        <ele>5</ele>
        <time>2026-02-28T11:44:57Z</time>
      </trkpt>
      <trkpt lat="43.38517" lon="-1.66346">
        <ele>2</ele>
        <time>2026-02-28T11:45:08Z</time>
      </trkpt>
      <trkpt lat="43.38548" lon="-1.66274">
        <ele>3</ele>
        <time>2026-02-28T11:45:19Z</time>
      </trkpt>
      <trkpt lat="43.38558" lon="-1.6625">
        <ele>3</ele>
        <time>2026-02-28T11:45:22Z</time>
      </trkpt>
      <trkpt lat="43.38566" lon="-1.66229">
        <ele>3</ele>
        <time>2026-02-28T11:45:25Z</time>
      </trkpt>
      <trkpt lat="43.38574" lon="-1.66212">
        <ele>4</ele>
        <time>2026-02-28T11:45:28Z</time>
      </trkpt>
      <trkpt lat="43.38589" lon="-1.66194">
        <ele>4</ele>
        <time>2026-02-28T11:45:32Z</time>
      </trkpt>
      <trkpt lat="43.3859" lon="-1.66189">
        <ele>4</ele>
        <time>2026-02-28T11:45:32Z</time>
      </trkpt>
      <trkpt lat="43.38593" lon="-1.66178">
        <ele>4</ele>
        <time>2026-02-28T11:45:34Z</time>
      </trkpt>
      <trkpt lat="43.38598" lon="-1.66173">
        <ele>5</ele>
        <time>2026-02-28T11:45:35Z</time>
      </trkpt>
      <trkpt lat="43.38603" lon="-1.6617">
        <ele>5</ele>
        <time>2026-02-28T11:45:36Z</time>
      </trkpt>
      <trkpt lat="43.38609" lon="-1.6617">
        <ele>5</ele>
        <time>2026-02-28T11:45:37Z</time>
      </trkpt>
      <trkpt lat="43.38615" lon="-1.66172">
        <ele>6</ele>
        <time>2026-02-28T11:45:38Z</time>
      </trkpt>
      <trkpt lat="43.38623" lon="-1.66181">
        <ele>6</ele>
        <time>2026-02-28T11:45:40Z</time>
      </trkpt>
      <trkpt lat="43.38625" lon="-1.66195">
        <ele>5</ele>
        <time>2026-02-28T11:45:42Z</time>
      </trkpt>
      <trkpt lat="43.3863" lon="-1.66198">
        <ele>6</ele>
        <time>2026-02-28T11:45:43Z</time>
      </trkpt>
      <trkpt lat="43.38654" lon="-1.66271">
        <ele>3</ele>
        <time>2026-02-28T11:45:53Z</time>
      </trkpt>
      <trkpt lat="43.38665" lon="-1.66299">
        <ele>2</ele>
        <time>2026-02-28T11:45:57Z</time>
      </trkpt>
      <trkpt lat="43.38674" lon="-1.66306">
        <ele>2</ele>
        <time>2026-02-28T11:45:59Z</time>
      </trkpt>
      <trkpt lat="43.3868" lon="-1.66306">
        <ele>2</ele>
        <time>2026-02-28T11:46:00Z</time>
      </trkpt>
      <trkpt lat="43.38685" lon="-1.66309">
        <ele>2</ele>
        <time>2026-02-28T11:46:01Z</time>
      </trkpt>
      <trkpt lat="43.38688" lon="-1.66317">
        <ele>2</ele>
        <time>2026-02-28T11:46:02Z</time>
      </trkpt>
      <trkpt lat="43.38687" lon="-1.66329">
        <ele>1</ele>
        <time>2026-02-28T11:46:04Z</time>
      </trkpt>
      <trkpt lat="43.38682" lon="-1.66334">
        <ele>1</ele>
        <time>2026-02-28T11:46:05Z</time>
      </trkpt>
      <trkpt lat="43.38678" lon="-1.66335">
        <ele>1</ele>
        <time>2026-02-28T11:46:06Z</time>
      </trkpt>
      <trkpt lat="43.3867" lon="-1.66331">
        <ele>4</ele>
        <time>2026-02-28T11:46:07Z</time>
      </trkpt>
      <trkpt lat="43.38668" lon="-1.66327">
        <ele>4</ele>
        <time>2026-02-28T11:46:08Z</time>
      </trkpt>
      <trkpt lat="43.38651" lon="-1.66328">
        <ele>4</ele>
        <time>2026-02-28T11:46:11Z</time>
      </trkpt>
      <trkpt lat="43.38636" lon="-1.66325">
        <ele>3.9</ele>
        <time>2026-02-28T11:46:13Z</time>
      </trkpt>
      <trkpt lat="43.38617" lon="-1.66317">
        <ele>3.4</ele>
        <time>2026-02-28T11:46:17Z</time>
      </trkpt>
      <trkpt lat="43.386" lon="-1.66303">
        <ele>1</ele>
        <time>2026-02-28T11:46:21Z</time>
      </trkpt>
      <trkpt lat="43.3857" lon="-1.66267">
        <ele>2</ele>
        <time>2026-02-28T11:46:28Z</time>
      </trkpt>
      <trkpt lat="43.38503" lon="-1.66208">
        <ele>4</ele>
        <time>2026-02-28T11:46:42Z</time>
      </trkpt>
      <trkpt lat="43.38496" lon="-1.66199">
        <ele>5</ele>
        <time>2026-02-28T11:46:44Z</time>
      </trkpt>
      <trkpt lat="43.38487" lon="-1.66173">
        <ele>5</ele>
        <time>2026-02-28T11:46:47Z</time>
      </trkpt>
      <trkpt lat="43.38481" lon="-1.66172">
        <ele>5</ele>
        <time>2026-02-28T11:46:48Z</time>
      </trkpt>
      <trkpt lat="43.38478" lon="-1.66167">
        <ele>6</ele>
        <time>2026-02-28T11:46:49Z</time>
      </trkpt>
      <trkpt lat="43.38477" lon="-1.66161">
        <ele>5</ele>
        <time>2026-02-28T11:46:50Z</time>
      </trkpt>
      <trkpt lat="43.38479" lon="-1.66155">
        <ele>5</ele>
        <time>2026-02-28T11:46:51Z</time>
      </trkpt>
      <trkpt lat="43.38462" lon="-1.66121">
        <ele>5</ele>
        <time>2026-02-28T11:46:56Z</time>
      </trkpt>
      <trkpt lat="43.38445" lon="-1.66095">
        <ele>5</ele>
        <time>2026-02-28T11:47:01Z</time>
      </trkpt>
      <trkpt lat="43.38347" lon="-1.65961">
        <ele>6</ele>
        <time>2026-02-28T11:47:25Z</time>
      </trkpt>
      <trkpt lat="43.3834" lon="-1.65943">
        <ele>6</ele>
        <time>2026-02-28T11:47:28Z</time>
      </trkpt>
      <trkpt lat="43.38333" lon="-1.65943">
        <ele>6</ele>
        <time>2026-02-28T11:47:29Z</time>
      </trkpt>
      <trkpt lat="43.3833" lon="-1.65941">
        <ele>6</ele>
        <time>2026-02-28T11:47:30Z</time>
      </trkpt>
      <trkpt lat="43.38329" lon="-1.65932">
        <ele>6</ele>
        <time>2026-02-28T11:47:31Z</time>
      </trkpt>
      <trkpt lat="43.3833" lon="-1.65928">
        <ele>6</ele>
        <time>2026-02-28T11:47:31Z</time>
      </trkpt>
      <trkpt lat="43.38324" lon="-1.65923">
        <ele>6</ele>
        <time>2026-02-28T11:47:33Z</time>
      </trkpt>
      <trkpt lat="43.38308" lon="-1.659">
        <ele>5</ele>
        <time>2026-02-28T11:47:37Z</time>
      </trkpt>
    </trkseg>
  </trk>
</gpx>